Observation data for Earth on 02/13/2018      Previous  Date  Next       Current Mesonet Observations  Soil Data  Daily Summary Page  Observations in Plain Language
KEA1 130600Z 11007KT M05/M12 A3024 RMK A01 T10451122  RH  055%=      5-min Rain = 0
KEA1 130601Z 11006KT M05/M12 A3024 RMK A01 T10451122  RH  055%=      5-min Rain = 0
KEA1 130602Z 10006KT M05/M12 A3024 RMK A01 T10461123  RH  055%=      5-min Rain = 0
KEA1 130603Z 10005KT M05/M12 A3024 RMK A01 T10471124  RH  055%=      5-min Rain = 0
KEA1 130604Z 10005KT M05/M13 A3024 RMK A01 T10491126  RH  055%=      5-min Rain = 0
KEA1 130605Z 10005KT M05/M13 A3024 RMK A01 T10511126  RH  055%=      5-min Rain = 0
KEA1 130606Z 10005KT M05/M13 A3024 RMK A01 T10521126  RH  056%=      5-min Rain = 0
KEA1 130607Z 10005KT M05/M13 A3025 RMK A01 T10531127  RH  056%=      5-min Rain = 0
KEA1 130608Z 09004KT M05/M13 A3025 RMK A01 T10541127  RH  056%=      5-min Rain = 0
KEA1 130609Z 09004KT M05/M13 A3025 RMK A01 T10541127  RH  057%=      5-min Rain = 0
KEA1 130610Z 09004KT M06/M13 A3025 RMK A01 T10551126  RH  057%=      5-min Rain = 0
KEA1 130611Z 09004KT M05/M13 A3025 RMK A01 T10541125  RH  057%=      5-min Rain = 0
KEA1 130612Z 09005KT M05/M13 A3025 RMK A01 T10531125  RH  057%=      5-min Rain = 0
KEA1 130613Z 09005KT M05/M13 A3025 RMK A01 T10531126  RH  057%=      5-min Rain = 0
KEA1 130614Z 09004KT M05/M13 A3025 RMK A01 T10531126  RH  057%=      5-min Rain = 0
KEA1 130615Z 09004KT M05/M13 A3025 RMK A01 T10531125  RH  057%=      5-min Rain = 0
KEA1 130616Z 09004KT M05/M12 A3025 RMK A01 T10521124  RH  057%=      5-min Rain = 0
KEA1 130617Z 10005KT M05/M12 A3025 RMK A01 T10511123  RH  057%=      5-min Rain = 0
KEA1 130618Z 10005KT M05/M12 A3025 RMK A01 T10501122  RH  057%=      5-min Rain = 0
KEA1 130619Z 10005KT M05/M12 A3024 RMK A01 T10491122  RH  057%=      5-min Rain = 0
KEA1 130620Z 11005KT M05/M12 A3024 RMK A01 T10481122  RH  056%=      5-min Rain = 0
KEA1 130621Z 11005KT M05/M12 A3024 RMK A01 T10481122  RH  056%=      5-min Rain = 0
KEA1 130622Z 11006KT M05/M12 A3024 RMK A01 T10471121  RH  056%=      5-min Rain = 0
KEA1 130623Z 11006KT M05/M12 A3024 RMK A01 T10461121  RH  056%=      5-min Rain = 0
KEA1 130624Z 11006KT M05/M12 A3024 RMK A01 T10471121  RH  056%=      5-min Rain = 0
KEA1 130625Z 10005KT M05/M12 A3024 RMK A01 T10471122  RH  056%=      5-min Rain = 0
KEA1 130626Z 09004KT M05/M13 A3024 RMK A01 T10501126  RH  055%=      5-min Rain = 0
KEA1 130627Z 08005KT M05/M13 A3024 RMK A01 T10521128  RH  056%=      5-min Rain = 0
KEA1 130628Z 08005KT M06/M13 A3024 RMK A01 T10551130  RH  056%=      5-min Rain = 0
KEA1 130629Z 07005KT M06/M13 A3024 RMK A01 T10581132  RH  056%=      5-min Rain = 0
KEA1 130630Z 07005KT M06/M13 A3024 RMK A01 T10611131  RH  057%=      5-min Rain = 0
KEA1 130631Z 06005KT M06/M13 A3024 RMK A01 T10611130  RH  058%=      5-min Rain = 0
KEA1 130632Z 06006KT M06/M13 A3024 RMK A01 T10621130  RH  058%=      5-min Rain = 0
KEA1 130633Z 06006KT M06/M13 A3024 RMK A01 T10641132  RH  058%=      5-min Rain = 0
KEA1 130634Z 05006KT M07/M13 A3024 RMK A01 T10651132  RH  059%=      5-min Rain = 0
KEA1 130635Z 05006KT M07/M13 A3024 RMK A01 T10661132  RH  059%=      5-min Rain = 0
KEA1 130636Z 06006KT M07/M13 A3024 RMK A01 T10671132  RH  060%=      5-min Rain = 0
KEA1 130637Z 06006KT M07/M13 A3024 RMK A01 T10671132  RH  060%=      5-min Rain = 0
KEA1 130638Z 06006KT M07/M13 A3024 RMK A01 T10681132  RH  060%=      5-min Rain = 0
KEA1 130639Z 06006KT M07/M13 A3024 RMK A01 T10691132  RH  061%=      5-min Rain = 0
KEA1 130640Z 07007KT M07/M13 A3024 RMK A01 T10681130  RH  061%=      5-min Rain = 0
KEA1 130641Z 07007KT M07/M13 A3024 RMK A01 T10661128  RH  062%=      5-min Rain = 0
KEA1 130642Z 08007KT M06/M13 A3024 RMK A01 T10641127  RH  061%=      5-min Rain = 0
KEA1 130643Z 08007KT M06/M13 A3024 RMK A01 T10631126  RH  061%=      5-min Rain = 0
KEA1 130644Z 08006KT M06/M13 A3024 RMK A01 T10611125  RH  061%=      5-min Rain = 0
KEA1 130645Z 09005KT M06/M13 A3024 RMK A01 T10601125  RH  060%=      5-min Rain = 0
KEA1 130646Z 09005KT M06/M13 A3024 RMK A01 T10591125  RH  060%=      5-min Rain = 0
KEA1 130647Z 09005KT M06/M13 A3024 RMK A01 T10591125  RH  059%=      5-min Rain = 0
KEA1 130648Z 09005KT M06/M13 A3024 RMK A01 T10581125  RH  059%=      5-min Rain = 0
KEA1 130649Z 09005KT M06/M13 A3024 RMK A01 T10581125  RH  059%=      5-min Rain = 0
KEA1 130650Z 09006KT M06/M13 A3024 RMK A01 T10571125  RH  059%=      5-min Rain = 0
KEA1 130651Z 08006KT M06/M13 A3024 RMK A01 T10571126  RH  058%=      5-min Rain = 0
KEA1 130652Z 08007KT M06/M13 A3024 RMK A01 T10591127  RH  058%=      5-min Rain = 0
KEA1 130653Z 08007KT M06/M13 A3024 RMK A01 T10601128  RH  058%=      5-min Rain = 0
KEA1 130654Z 08007KT M06/M13 A3024 RMK A01 T10621130  RH  058%=      5-min Rain = 0
KEA1 130655Z 08007KT M06/M13 A3024 RMK A01 T10641131  RH  059%=      5-min Rain = 0
KEA1 130656Z 07007KT M07/M13 A3024 RMK A01 T10651132  RH  059%=      5-min Rain = 0
KEA1 130657Z 07007KT M07/M13 A3024 RMK A01 T10671133  RH  059%=      5-min Rain = 0
KEA1 130658Z 06006KT M07/M13 A3024 RMK A01 T10691134  RH  060%=      5-min Rain = 0
KEA1 130659Z 06005KT M07/M13 A3024 RMK A01 T10691133  RH  060%=      5-min Rain = 0
KEA1 130700Z 06004KT M07/M13 A3024 RMK A01 T10701134  RH  061%=      5-min Rain = 0
KEA1 130701Z 05003KT M07/M14 A3024 RMK A01 T10721135  RH  061%=      5-min Rain = 0
KEA1 130702Z 06003KT M07/M13 A3025 RMK A01 T10731134  RH  062%=      5-min Rain = 0
KEA1 130703Z 06004KT M07/M13 A3025 RMK A01 T10721131  RH  063%=      5-min Rain = 0
KEA1 130704Z 07004KT M07/M13 A3024 RMK A01 T10701129  RH  063%=      5-min Rain = 0
KEA1 130705Z 08004KT M07/M13 A3024 RMK A01 T10691126  RH  063%=      5-min Rain = 0
KEA1 130706Z 08004KT M07/M12 A3024 RMK A01 T10651123  RH  063%=      5-min Rain = 0
KEA1 130707Z 09003KT M06/M12 A3024 RMK A01 T10621122  RH  062%=      5-min Rain = 0
KEA1 130708Z 10003KT M06/M12 A3024 RMK A01 T10601122  RH  061%=      5-min Rain = 0
KEA1 130709Z 09004KT M06/M12 A3024 RMK A01 T10591124  RH  060%=      5-min Rain = 0
KEA1 130710Z 09004KT M06/M13 A3024 RMK A01 T10601126  RH  059%=      5-min Rain = 0
KEA1 130711Z 10005KT M06/M13 A3024 RMK A01 T10601127  RH  059%=      5-min Rain = 0
KEA1 130712Z 10005KT M06/M13 A3024 RMK A01 T10621129  RH  059%=      5-min Rain = 0
KEA1 130713Z 10005KT M06/M13 A3024 RMK A01 T10631129  RH  059%=      5-min Rain = 0
KEA1 130714Z 09004KT M06/M13 A3024 RMK A01 T10631128  RH  060%=      5-min Rain = 0
KEA1 130715Z 09004KT M06/M13 A3024 RMK A01 T10621126  RH  060%=      5-min Rain = 0
KEA1 130716Z 08005KT M06/M13 A3024 RMK A01 T10611126  RH  060%=      5-min Rain = 0
KEA1 130717Z 08006KT M06/M13 A3024 RMK A01 T10611126  RH  060%=      5-min Rain = 0
KEA1 130718Z 08006KT M06/M13 A3024 RMK A01 T10611127  RH  060%=      5-min Rain = 0
KEA1 130719Z 07005KT M06/M13 A3024 RMK A01 T10631129  RH  059%=      5-min Rain = 0
KEA1 130720Z 07005KT M07/M13 A3024 RMK A01 T10661131  RH  060%=      5-min Rain = 0
KEA1 130721Z 07006KT M07/M13 A3024 RMK A01 T10661130  RH  061%=      5-min Rain = 0
KEA1 130722Z 07006KT M07/M13 A3024 RMK A01 T10661129  RH  061%=      5-min Rain = 0
KEA1 130723Z 07006KT M07/M13 A3024 RMK A01 T10661128  RH  061%=      5-min Rain = 0
KEA1 130724Z 07005KT M07/M13 A3024 RMK A01 T10651128  RH  061%=      5-min Rain = 0
KEA1 130725Z 08005KT M06/M13 A3024 RMK A01 T10641127  RH  061%=      5-min Rain = 0
KEA1 130726Z 08005KT M06/M13 A3024 RMK A01 T10641127  RH  061%=      5-min Rain = 0
KEA1 130727Z 08005KT M06/M13 A3024 RMK A01 T10631125  RH  061%=      5-min Rain = 0
KEA1 130728Z 08004KT M06/M13 A3024 RMK A01 T10611125  RH  061%=      5-min Rain = 0
KEA1 130729Z 09004KT M06/M13 A3024 RMK A01 T10601125  RH  060%=      5-min Rain = 0
KEA1 130730Z 09004KT M06/M13 A3024 RMK A01 T10601125  RH  060%=      5-min Rain = 0
KEA1 130731Z 09004KT M06/M13 A3024 RMK A01 T10611127  RH  060%=      5-min Rain = 0
KEA1 130732Z 10005KT M06/M13 A3024 RMK A01 T10621129  RH  059%=      5-min Rain = 0
KEA1 130733Z 10005KT M06/M13 A3024 RMK A01 T10641131  RH  059%=      5-min Rain = 0
KEA1 130734Z 10005KT M07/M13 A3024 RMK A01 T10651129  RH  060%=      5-min Rain = 0
KEA1 130735Z 10005KT M07/M13 A3024 RMK A01 T10651128  RH  061%=      5-min Rain = 0
KEA1 130736Z 10005KT M06/M13 A3024 RMK A01 T10641127  RH  061%=      5-min Rain = 0
KEA1 130737Z 10005KT M06/M13 A3024 RMK A01 T10631126  RH  061%=      5-min Rain = 0
KEA1 130738Z 10005KT M06/M13 A3024 RMK A01 T10621126  RH  061%=      5-min Rain = 0
KEA1 130739Z 10005KT M06/M13 A3024 RMK A01 T10621127  RH  060%=      5-min Rain = 0
KEA1 130740Z 10004KT M06/M13 A3024 RMK A01 T10621126  RH  061%=      5-min Rain = 0
KEA1 130741Z 10004KT M06/M13 A3024 RMK A01 T10611125  RH  061%=      5-min Rain = 0
KEA1 130742Z 09003KT M06/M13 A3024 RMK A01 T10621127  RH  060%=      5-min Rain = 0
KEA1 130743Z 08003KT M06/M13 A3024 RMK A01 T10611126  RH  060%=      5-min Rain = 0
KEA1 130744Z 07004KT M06/M13 A3024 RMK A01 T10621127  RH  060%=      5-min Rain = 0
KEA1 130745Z 06004KT M06/M13 A3024 RMK A01 T10641130  RH  059%=      5-min Rain = 0
KEA1 130746Z 05003KT M07/M13 A3024 RMK A01 T10671133  RH  059%=      5-min Rain = 0
KEA1 130747Z 05003KT M07/M14 A3024 RMK A01 T10701136  RH  060%=      5-min Rain = 0
KEA1 130748Z 04003KT M07/M14 A3024 RMK A01 T10741138  RH  060%=      5-min Rain = 0
KEA1 130749Z 04003KT M08/M14 A3024 RMK A01 T10771139  RH  061%=      5-min Rain = 0
KEA1 130750Z 04003KT M08/M14 A3024 RMK A01 T10781138  RH  062%=      5-min Rain = 0
KEA1 130751Z 05003KT M08/M14 A3024 RMK A01 T10791137  RH  063%=      5-min Rain = 0
KEA1 130752Z 06003KT M08/M13 A3024 RMK A01 T10771133  RH  064%=      5-min Rain = 0
KEA1 130753Z 06003KT M08/M13 A3024 RMK A01 T10751130  RH  065%=      5-min Rain = 0
KEA1 130754Z 07004KT M07/M13 A3024 RMK A01 T10731129  RH  065%=      5-min Rain = 0
KEA1 130755Z 08004KT M07/M13 A3024 RMK A01 T10721128  RH  064%=      5-min Rain = 0
KEA1 130756Z 09003KT M07/M13 A3024 RMK A01 T10701127  RH  064%=      5-min Rain = 0
KEA1 130757Z 10003KT M07/M13 A3024 RMK A01 T10701129  RH  063%=      5-min Rain = 0
KEA1 130758Z 10003KT M07/M13 A3024 RMK A01 T10711134  RH  061%=      5-min Rain = 0
KEA1 130759Z 10004KT M08/M14 A3024 RMK A01 T10751138  RH  061%=      5-min Rain = 0
KEA1 130800Z 11004KT M08/M13 A3024 RMK A01 T10751134  RH  063%=      5-min Rain = 0
KEA1 130801Z 11004KT M07/M13 A3024 RMK A01 T10741131  RH  063%=      5-min Rain = 0
KEA1 130802Z 11004KT M07/M13 A3024 RMK A01 T10731132  RH  063%=      5-min Rain = 0
KEA1 130803Z 11005KT M07/M13 A3024 RMK A01 T10731132  RH  063%=      5-min Rain = 0
KEA1 130804Z 11005KT M07/M14 A3024 RMK A01 T10741135  RH  062%=      5-min Rain = 0
KEA1 130805Z 12004KT M08/M14 A3024 RMK A01 T10761136  RH  062%=      5-min Rain = 0
KEA1 130806Z 12004KT M08/M14 A3024 RMK A01 T10771136  RH  062%=      5-min Rain = 0
KEA1 130807Z 12003KT M08/M14 A3024 RMK A01 T10771135  RH  063%=      5-min Rain = 0
KEA1 130808Z 12003KT M08/M13 A3024 RMK A01 T10771133  RH  064%=      5-min Rain = 0
KEA1 130809Z 12003KT M08/M13 A3024 RMK A01 T10761132  RH  064%=      5-min Rain = 0
KEA1 130810Z 11002KT M08/M13 A3024 RMK A01 T10751131  RH  064%=      5-min Rain = 0
KEA1 130811Z 10001KT M07/M13 A3024 RMK A01 T10741129  RH  065%=      5-min Rain = 0
KEA1 130812Z 09001KT M07/M13 A3024 RMK A01 T10721128  RH  064%=      5-min Rain = 0
KEA1 130813Z 08001KT M07/M13 A3024 RMK A01 T10721130  RH  063%=      5-min Rain = 0
KEA1 130814Z 06001KT M07/M13 A3024 RMK A01 T10721131  RH  063%=      5-min Rain = 0
KEA1 130815Z 05001KT M07/M13 A3024 RMK A01 T10721130  RH  063%=      5-min Rain = 0
KEA1 130816Z 04001KT M07/M13 A3024 RMK A01 T10721131  RH  063%=      5-min Rain = 0
KEA1 130817Z 04001KT M07/M13 A3024 RMK A01 T10721130  RH  063%=      5-min Rain = 0
KEA1 130818Z 03001KT M07/M13 A3024 RMK A01 T10721130  RH  064%=      5-min Rain = 0
KEA1 130819Z 03001KT M07/M13 A3024 RMK A01 T10721129  RH  063%=      5-min Rain = 0
KEA1 130820Z 03001KT M07/M13 A3025 RMK A01 T10721130  RH  063%=      5-min Rain = 0
KEA1 130821Z 03001KT M07/M13 A3025 RMK A01 T10721130  RH  063%=      5-min Rain = 0
KEA1 130822Z 03000KT M07/M13 A3025 RMK A01 T10721130  RH  063%=      5-min Rain = 0
KEA1 130823Z 00000KT M07/M13 A3025 RMK A01 T10721129  RH  064%=      5-min Rain = 0
KEA1 130824Z 00000KT M07/M13 A3024 RMK A01 T10721129  RH  064%=      5-min Rain = 0
KEA1 130825Z 12000KT M07/M13 A3024 RMK A01 T10721129  RH  064%=      5-min Rain = 0
KEA1 130826Z 12000KT M07/M13 A3024 RMK A01 T10721129  RH  064%=      5-min Rain = 0
KEA1 130827Z 12001KT M07/M13 A3024 RMK A01 T10721129  RH  064%=      5-min Rain = 0
KEA1 130828Z 12001KT M07/M13 A3024 RMK A01 T10721129  RH  064%=      5-min Rain = 0
KEA1 130829Z 12001KT M07/M13 A3024 RMK A01 T10721130  RH  063%=      5-min Rain = 0
KEA1 130830Z 12000KT M07/M13 A3024 RMK A01 T10721129  RH  064%=      5-min Rain = 0
KEA1 130831Z 00000KT M07/M13 A3024 RMK A01 T10721129  RH  064%=      5-min Rain = 0
KEA1 130832Z 00000KT M07/M13 A3024 RMK A01 T10711128  RH  064%=      5-min Rain = 0
KEA1 130833Z 00000KT M07/M13 A3024 RMK A01 T10711128  RH  064%=      5-min Rain = 0
KEA1 130834Z 31001KT M07/M13 A3024 RMK A01 T10711128  RH  063%=      5-min Rain = 0
KEA1 130835Z 31001KT M07/M13 A3024 RMK A01 T10711129  RH  063%=      5-min Rain = 0
KEA1 130836Z 32001KT M07/M13 A3024 RMK A01 T10711129  RH  063%=      5-min Rain = 0
KEA1 130837Z 32001KT M07/M13 A3024 RMK A01 T10711129  RH  063%=      5-min Rain = 0
KEA1 130838Z 30002KT M07/M13 A3024 RMK A01 T10731132  RH  063%=      5-min Rain = 0
KEA1 130839Z 30002KT M08/M14 A3024 RMK A01 T10751135  RH  063%=      5-min Rain = 0
KEA1 130840Z 30002KT M08/M14 A3024 RMK A01 T10781137  RH  063%=      5-min Rain = 0
KEA1 130841Z 31002KT M08/M14 A3024 RMK A01 T10791136  RH  064%=      5-min Rain = 0
KEA1 130842Z 32002KT M08/M14 A3024 RMK A01 T10801135  RH  064%=      5-min Rain = 0
KEA1 130843Z 33002KT M08/M14 A3024 RMK A01 T10811136  RH  064%=      5-min Rain = 0
KEA1 130844Z 33002KT M08/M14 A3024 RMK A01 T10821136  RH  065%=      5-min Rain = 0
KEA1 130845Z 33002KT M08/M14 A3024 RMK A01 T10821135  RH  065%=      5-min Rain = 0
KEA1 130846Z 34002KT M08/M13 A3024 RMK A01 T10811133  RH  066%=      5-min Rain = 0
KEA1 130847Z 34002KT M08/M13 A3024 RMK A01 T10801130  RH  067%=      5-min Rain = 0
KEA1 130848Z 34002KT M08/M13 A3024 RMK A01 T10781128  RH  067%=      5-min Rain = 0
KEA1 130849Z 35002KT M08/M13 A3024 RMK A01 T10771129  RH  067%=      5-min Rain = 0
KEA1 130850Z 35003KT M08/M13 A3024 RMK A01 T10771129  RH  066%=      5-min Rain = 0
KEA1 130851Z 35003KT M08/M13 A3024 RMK A01 T10771130  RH  066%=      5-min Rain = 0
KEA1 130852Z 35003KT M08/M13 A3024 RMK A01 T10771130  RH  066%=      5-min Rain = 0
KEA1 130853Z 34004KT M08/M13 A3024 RMK A01 T10771131  RH  065%=      5-min Rain = 0
KEA1 130854Z 35004KT M08/M13 A3024 RMK A01 T10771131  RH  065%=      5-min Rain = 0
KEA1 130855Z 35003KT M08/M13 A3024 RMK A01 T10771132  RH  065%=      5-min Rain = 0
KEA1 130856Z 35003KT M08/M13 A3024 RMK A01 T10781131  RH  065%=      5-min Rain = 0
KEA1 130857Z 34003KT M08/M13 A3024 RMK A01 T10771131  RH  065%=      5-min Rain = 0
KEA1 130858Z 33003KT M08/M13 A3025 RMK A01 T10781132  RH  065%=      5-min Rain = 0
KEA1 130859Z 33003KT M08/M13 A3025 RMK A01 T10781132  RH  065%=      5-min Rain = 0
KEA1 130900Z 32003KT M08/M13 A3025 RMK A01 T10781131  RH  066%=      5-min Rain = 0
KEA1 130901Z 31003KT M08/M13 A3025 RMK A01 T10791133  RH  065%=      5-min Rain = 0
KEA1 130902Z 31003KT M08/M14 A3025 RMK A01 T10811136  RH  065%=      5-min Rain = 0
KEA1 130903Z 31003KT M08/M14 A3025 RMK A01 T10811135  RH  065%=      5-min Rain = 0
KEA1 130904Z 31003KT M08/M13 A3025 RMK A01 T10811134  RH  066%=      5-min Rain = 0
KEA1 130905Z 32003KT M08/M13 A3025 RMK A01 T10811134  RH  066%=      5-min Rain = 0
KEA1 130906Z 33003KT M08/M13 A3025 RMK A01 T10801133  RH  066%=      5-min Rain = 0
KEA1 130907Z 35003KT M08/M13 A3025 RMK A01 T10801133  RH  066%=      5-min Rain = 0
KEA1 130908Z 00004KT M08/M13 A3025 RMK A01 T10791133  RH  066%=      5-min Rain = 0
KEA1 130909Z 00004KT M08/M13 A3025 RMK A01 T10801133  RH  065%=      5-min Rain = 0
KEA1 130910Z 00005KT M08/M13 A3025 RMK A01 T10801133  RH  066%=      5-min Rain = 0
KEA1 130911Z 00005KT M08/M13 A3025 RMK A01 T10801133  RH  066%=      5-min Rain = 0
KEA1 130912Z 00005KT M08/M13 A3025 RMK A01 T10801132  RH  066%=      5-min Rain = 0
KEA1 130913Z 00005KT M08/M13 A3025 RMK A01 T10791131  RH  066%=      5-min Rain = 0
KEA1 130914Z 00005KT M08/M13 A3025 RMK A01 T10781131  RH  066%=      5-min Rain = 0
KEA1 130915Z 00004KT M08/M13 A3025 RMK A01 T10791132  RH  066%=      5-min Rain = 0
KEA1 130916Z 00004KT M08/M13 A3025 RMK A01 T10791131  RH  066%=      5-min Rain = 0
KEA1 130917Z 00004KT M08/M13 A3025 RMK A01 T10791131  RH  066%=      5-min Rain = 0
KEA1 130918Z 01003KT M08/M13 A3025 RMK A01 T10771129  RH  066%=      5-min Rain = 0
KEA1 130919Z 01003KT M08/M13 A3025 RMK A01 T10771129  RH  066%=      5-min Rain = 0
KEA1 130920Z 01003KT M08/M13 A3025 RMK A01 T10761128  RH  066%=      5-min Rain = 0
KEA1 130921Z 01003KT M07/M13 A3025 RMK A01 T10741127  RH  066%=      5-min Rain = 0
KEA1 130922Z 02003KT M07/M13 A3025 RMK A01 T10741128  RH  065%=      5-min Rain = 0
KEA1 130923Z 02003KT M07/M13 A3025 RMK A01 T10731129  RH  065%=      5-min Rain = 0
KEA1 130924Z 02003KT M08/M13 A3025 RMK A01 T10751131  RH  064%=      5-min Rain = 0
KEA1 130925Z 02003KT M08/M13 A3024 RMK A01 T10761132  RH  064%=      5-min Rain = 0
KEA1 130926Z 01003KT M08/M13 A3024 RMK A01 T10781133  RH  064%=      5-min Rain = 0
KEA1 130927Z 01003KT M08/M13 A3024 RMK A01 T10791134  RH  064%=      5-min Rain = 0
KEA1 130928Z 35004KT M08/M14 A3025 RMK A01 T10801135  RH  065%=      5-min Rain = 0
KEA1 130929Z 36004KT M08/M14 A3025 RMK A01 T10821136  RH  065%=      5-min Rain = 0
KEA1 130930Z 35004KT M08/M14 A3025 RMK A01 T10831137  RH  065%=      5-min Rain = 0
KEA1 130931Z 35004KT M08/M14 A3025 RMK A01 T10841137  RH  066%=      5-min Rain = 0
KEA1 130932Z 00004KT M09/M14 A3025 RMK A01 T10851136  RH  066%=      5-min Rain = 0
KEA1 130933Z 01003KT M09/M14 A3024 RMK A01 T10851135  RH  067%=      5-min Rain = 0
KEA1 130934Z 01003KT M08/M13 A3024 RMK A01 T10841133  RH  068%=      5-min Rain = 0
KEA1 130935Z 02003KT M08/M13 A3024 RMK A01 T10841133  RH  068%=      5-min Rain = 0
KEA1 130936Z 02003KT M08/M13 A3024 RMK A01 T10821131  RH  068%=      5-min Rain = 0
KEA1 130937Z 03003KT M08/M13 A3024 RMK A01 T10811130  RH  068%=      5-min Rain = 0
KEA1 130938Z 04002KT M08/M13 A3024 RMK A01 T10791129  RH  068%=      5-min Rain = 0
KEA1 130939Z 04003KT M08/M13 A3024 RMK A01 T10791128  RH  068%=      5-min Rain = 0
KEA1 130940Z 03002KT M08/M13 A3025 RMK A01 T10771127  RH  068%=      5-min Rain = 0
KEA1 130941Z 03002KT M08/M13 A3025 RMK A01 T10761126  RH  068%=      5-min Rain = 0
KEA1 130942Z 02003KT M08/M13 A3025 RMK A01 T10761125  RH  068%=      5-min Rain = 0
KEA1 130943Z 03002KT M07/M12 A3025 RMK A01 T10741124  RH  068%=      5-min Rain = 0
KEA1 130944Z 03002KT M07/M12 A3025 RMK A01 T10731123  RH  067%=      5-min Rain = 0
KEA1 130945Z 04002KT M07/M12 A3025 RMK A01 T10721122  RH  067%=      5-min Rain = 0
KEA1 130946Z 04003KT M07/M12 A3025 RMK A01 T10711122  RH  067%=      5-min Rain = 0
KEA1 130947Z 04003KT M07/M12 A3025 RMK A01 T10691122  RH  066%=      5-min Rain = 0
KEA1 130948Z 04003KT M07/M12 A3025 RMK A01 T10691123  RH  065%=      5-min Rain = 0
KEA1 130949Z 03003KT M07/M12 A3024 RMK A01 T10681123  RH  065%=      5-min Rain = 0
KEA1 130950Z 03003KT M07/M12 A3024 RMK A01 T10681124  RH  064%=      5-min Rain = 0
KEA1 130951Z 03003KT M07/M12 A3024 RMK A01 T10681124  RH  064%=      5-min Rain = 0
KEA1 130952Z 03003KT M07/M13 A3024 RMK A01 T10691125  RH  064%=      5-min Rain = 0
KEA1 130953Z 02003KT M07/M13 A3024 RMK A01 T10691125  RH  064%=      5-min Rain = 0
KEA1 130954Z 02003KT M07/M13 A3024 RMK A01 T10701126  RH  064%=      5-min Rain = 0
KEA1 130955Z 02003KT M07/M13 A3024 RMK A01 T10701126  RH  064%=      5-min Rain = 0
KEA1 130956Z 03003KT M07/M13 A3024 RMK A01 T10701126  RH  064%=      5-min Rain = 0
KEA1 130957Z 04003KT M07/M13 A3024 RMK A01 T10711127  RH  064%=      5-min Rain = 0
KEA1 130958Z 05003KT M07/M13 A3024 RMK A01 T10711127  RH  065%=      5-min Rain = 0
KEA1 130959Z 06003KT M07/M13 A3024 RMK A01 T10721127  RH  064%=      5-min Rain = 0
KEA1 131000Z 07003KT M07/M13 A3024 RMK A01 T10721128  RH  064%=      5-min Rain = 0
KEA1 131001Z 07003KT M07/M13 A3024 RMK A01 T10731129  RH  064%=      5-min Rain = 0
KEA1 131002Z 07003KT M07/M13 A3024 RMK A01 T10741130  RH  064%=      5-min Rain = 0
KEA1 131003Z 07003KT M08/M13 A3024 RMK A01 T10761131  RH  065%=      5-min Rain = 0
KEA1 131004Z 07003KT M08/M13 A3024 RMK A01 T10751129  RH  066%=      5-min Rain = 0
KEA1 131005Z 08002KT M08/M13 A3024 RMK A01 T10751128  RH  066%=      5-min Rain = 0
KEA1 131006Z 07003KT M07/M13 A3024 RMK A01 T10741129  RH  065%=      5-min Rain = 0
KEA1 131007Z 07003KT M08/M13 A3024 RMK A01 T10751128  RH  065%=      5-min Rain = 0
KEA1 131008Z 07002KT M08/M13 A3024 RMK A01 T10751129  RH  065%=      5-min Rain = 0
KEA1 131009Z 07003KT M08/M13 A3024 RMK A01 T10751129  RH  065%=      5-min Rain = 0
KEA1 131010Z 07003KT M08/M13 A3024 RMK A01 T10751127  RH  066%=      5-min Rain = 0
KEA1 131011Z 07003KT M07/M12 A3024 RMK A01 T10721124  RH  066%=      5-min Rain = 0
KEA1 131012Z 06003KT M07/M12 A3024 RMK A01 T10711124  RH  065%=      5-min Rain = 0
KEA1 131013Z 06004KT M07/M13 A3024 RMK A01 T10691125  RH  065%=      5-min Rain = 0
KEA1 131014Z 06004KT M07/M13 A3024 RMK A01 T10691126  RH  064%=      5-min Rain = 0
KEA1 131015Z 06003KT M07/M13 A3024 RMK A01 T10691126  RH  064%=      5-min Rain = 0
KEA1 131016Z 06003KT M07/M13 A3024 RMK A01 T10691126  RH  064%=      5-min Rain = 0
KEA1 131017Z 07003KT M07/M13 A3024 RMK A01 T10691127  RH  063%=      5-min Rain = 0
KEA1 131018Z 08002KT M07/M13 A3024 RMK A01 T10691128  RH  063%=      5-min Rain = 0
KEA1 131019Z 08003KT M07/M13 A3023 RMK A01 T10721132  RH  062%=      5-min Rain = 0
KEA1 131020Z 08003KT M07/M13 A3023 RMK A01 T10731130  RH  064%=      5-min Rain = 0
KEA1 131021Z 08003KT M07/M13 A3023 RMK A01 T10741131  RH  064%=      5-min Rain = 0
KEA1 131022Z 08003KT M08/M13 A3023 RMK A01 T10751131  RH  064%=      5-min Rain = 0
KEA1 131023Z 08003KT M08/M13 A3023 RMK A01 T10751131  RH  065%=      5-min Rain = 0
KEA1 131024Z 07003KT M08/M13 A3023 RMK A01 T10751130  RH  065%=      5-min Rain = 0
KEA1 131025Z 07004KT M08/M13 A3023 RMK A01 T10751130  RH  065%=      5-min Rain = 0
KEA1 131026Z 07004KT M07/M13 A3023 RMK A01 T10741129  RH  065%=      5-min Rain = 0
KEA1 131027Z 06004KT M07/M13 A3023 RMK A01 T10741128  RH  065%=      5-min Rain = 0
KEA1 131028Z 06004KT M07/M13 A3023 RMK A01 T10721127  RH  065%=      5-min Rain = 0
KEA1 131029Z 07003KT M07/M13 A3023 RMK A01 T10721127  RH  065%=      5-min Rain = 0
KEA1 131030Z 06003KT M07/M13 A3023 RMK A01 T10711127  RH  065%=      5-min Rain = 0
KEA1 131031Z 06003KT M07/M13 A3023 RMK A01 T10701126  RH  064%=      5-min Rain = 0
KEA1 131032Z 06003KT M07/M13 A3023 RMK A01 T10701127  RH  064%=      5-min Rain = 0
KEA1 131033Z 07003KT M07/M13 A3023 RMK A01 T10691127  RH  064%=      5-min Rain = 0
KEA1 131034Z 07003KT M07/M13 A3023 RMK A01 T10701128  RH  063%=      5-min Rain = 0
KEA1 131035Z 08003KT M07/M13 A3023 RMK A01 T10711129  RH  063%=      5-min Rain = 0
KEA1 131036Z 08003KT M07/M13 A3023 RMK A01 T10731131  RH  063%=      5-min Rain = 0
KEA1 131037Z 09003KT M07/M13 A3023 RMK A01 T10731130  RH  064%=      5-min Rain = 0
KEA1 131038Z 10003KT M07/M13 A3023 RMK A01 T10741130  RH  064%=      5-min Rain = 0
KEA1 131039Z 10003KT M07/M13 A3023 RMK A01 T10741130  RH  065%=      5-min Rain = 0
KEA1 131040Z 09003KT M07/M13 A3023 RMK A01 T10741129  RH  065%=      5-min Rain = 0
KEA1 131041Z 09003KT M08/M13 A3023 RMK A01 T10751130  RH  065%=      5-min Rain = 0
KEA1 131042Z 09003KT M07/M13 A3023 RMK A01 T10741128  RH  065%=      5-min Rain = 0
KEA1 131043Z 09003KT M07/M13 A3023 RMK A01 T10741129  RH  065%=      5-min Rain = 0
KEA1 131044Z 09002KT M07/M13 A3023 RMK A01 T10741129  RH  065%=      5-min Rain = 0
KEA1 131045Z 09002KT M07/M13 A3023 RMK A01 T10741130  RH  064%=      5-min Rain = 0
KEA1 131046Z 09002KT M08/M13 A3023 RMK A01 T10751129  RH  065%=      5-min Rain = 0
KEA1 131047Z 09002KT M07/M13 A3023 RMK A01 T10741128  RH  065%=      5-min Rain = 0
KEA1 131048Z 09003KT M07/M13 A3023 RMK A01 T10741128  RH  065%=      5-min Rain = 0
KEA1 131049Z 09003KT M07/M13 A3023 RMK A01 T10731127  RH  065%=      5-min Rain = 0
KEA1 131050Z 09002KT M07/M13 A3023 RMK A01 T10721128  RH  065%=      5-min Rain = 0
KEA1 131051Z 09002KT M07/M13 A3023 RMK A01 T10721128  RH  064%=      5-min Rain = 0
KEA1 131052Z 09002KT M07/M13 A3023 RMK A01 T10721128  RH  065%=      5-min Rain = 0
KEA1 131053Z 08003KT M07/M13 A3023 RMK A01 T10721127  RH  065%=      5-min Rain = 0
KEA1 131054Z 08003KT M07/M13 A3023 RMK A01 T10711126  RH  065%=      5-min Rain = 0
KEA1 131055Z 08004KT M07/M13 A3023 RMK A01 T10701125  RH  065%=      5-min Rain = 0
KEA1 131056Z 08003KT M07/M13 A3023 RMK A01 T10691126  RH  064%=      5-min Rain = 0
KEA1 131057Z 08004KT M07/M13 A3023 RMK A01 T10691126  RH  064%=      5-min Rain = 0
KEA1 131058Z 08004KT M07/M13 A3023 RMK A01 T10691126  RH  064%=      5-min Rain = 0
KEA1 131059Z 07004KT M07/M13 A3023 RMK A01 T10691127  RH  064%=      5-min Rain = 0
KEA1 131100Z 08004KT M07/M13 A3023 RMK A01 T10701127  RH  064%=      5-min Rain = 0
KEA1 131101Z 08004KT M07/M13 A3023 RMK A01 T10711128  RH  064%=      5-min Rain = 0
KEA1 131102Z 08004KT M07/M13 A3023 RMK A01 T10711127  RH  064%=      5-min Rain = 0
KEA1 131103Z 08004KT M07/M13 A3023 RMK A01 T10711127  RH  064%=      5-min Rain = 0
KEA1 131104Z 08004KT M07/M13 A3023 RMK A01 T10711127  RH  064%=      5-min Rain = 0
KEA1 131105Z 08004KT M07/M13 A3023 RMK A01 T10721128  RH  064%=      5-min Rain = 0
KEA1 131106Z 08004KT M07/M13 A3023 RMK A01 T10711127  RH  064%=      5-min Rain = 0
KEA1 131107Z 08004KT M07/M13 A3023 RMK A01 T10711127  RH  065%=      5-min Rain = 0
KEA1 131108Z 08004KT M07/M13 A3023 RMK A01 T10721127  RH  065%=      5-min Rain = 0
KEA1 131109Z 07004KT M07/M13 A3023 RMK A01 T10711127  RH  065%=      5-min Rain = 0
KEA1 131110Z 07004KT M07/M13 A3022 RMK A01 T10711127  RH  064%=      5-min Rain = 0
KEA1 131111Z 06003KT M07/M13 A3023 RMK A01 T10711127  RH  064%=      5-min Rain = 0
KEA1 131112Z 05003KT M07/M13 A3023 RMK A01 T10721128  RH  064%=      5-min Rain = 0
KEA1 131113Z 05003KT M07/M13 A3023 RMK A01 T10721128  RH  064%=      5-min Rain = 0
KEA1 131114Z 04003KT M07/M13 A3023 RMK A01 T10731130  RH  064%=      5-min Rain = 0
KEA1 131115Z 03004KT M07/M13 A3023 RMK A01 T10741132  RH  064%=      5-min Rain = 0
KEA1 131116Z 04004KT M08/M13 A3023 RMK A01 T10751130  RH  065%=      5-min Rain = 0
KEA1 131117Z 03004KT M08/M13 A3023 RMK A01 T10761133  RH  063%=      5-min Rain = 0
KEA1 131118Z 02004KT M08/M15 A3023 RMK A01 T10821146  RH  060%=      5-min Rain = 0
KEA1 131119Z 02004KT M09/M16 A3023 RMK A01 T10901157  RH  058%=      5-min Rain = 0
KEA1 131120Z 03003KT M09/M16 A3023 RMK A01 T10941156  RH  061%=      5-min Rain = 0
KEA1 131121Z 03003KT M10/M15 A3023 RMK A01 T10971154  RH  063%=      5-min Rain = 0
KEA1 131122Z 03003KT M10/M15 A3023 RMK A01 T10981152  RH  064%=      5-min Rain = 0
KEA1 131123Z 03003KT M10/M15 A3023 RMK A01 T10961146  RH  067%=      5-min Rain = 0
KEA1 131124Z 03003KT M09/M14 A3023 RMK A01 T10921137  RH  070%=      5-min Rain = 0
KEA1 131125Z 04003KT M09/M13 A3023 RMK A01 T10881131  RH  071%=      5-min Rain = 0
KEA1 131126Z 04003KT M09/M13 A3023 RMK A01 T10851129  RH  070%=      5-min Rain = 0
KEA1 131127Z 04002KT M08/M13 A3023 RMK A01 T10831129  RH  069%=      5-min Rain = 0
KEA1 131128Z 03002KT M08/M13 A3023 RMK A01 T10821130  RH  068%=      5-min Rain = 0
KEA1 131129Z 02003KT M08/M13 A3023 RMK A01 T10821132  RH  067%=      5-min Rain = 0
KEA1 131130Z 02003KT M08/M13 A3023 RMK A01 T10821134  RH  066%=      5-min Rain = 0
KEA1 131131Z 02003KT M08/M14 A3023 RMK A01 T10831135  RH  066%=      5-min Rain = 0
KEA1 131132Z 01003KT M08/M13 A3023 RMK A01 T10831134  RH  067%=      5-min Rain = 0
KEA1 131133Z 01003KT M08/M14 A3023 RMK A01 T10841136  RH  066%=      5-min Rain = 0
KEA1 131134Z 00003KT M09/M14 A3023 RMK A01 T10861138  RH  066%=      5-min Rain = 0
KEA1 131135Z 01003KT M09/M14 A3023 RMK A01 T10891144  RH  065%=      5-min Rain = 0
KEA1 131136Z 02004KT M09/M14 A3023 RMK A01 T10911142  RH  066%=      5-min Rain = 0
KEA1 131137Z 01003KT M09/M14 A3023 RMK A01 T10911141  RH  067%=      5-min Rain = 0
KEA1 131138Z 02003KT M09/M14 A3023 RMK A01 T10911141  RH  067%=      5-min Rain = 0
KEA1 131139Z 03003KT M09/M14 A3023 RMK A01 T10921142  RH  067%=      5-min Rain = 0
KEA1 131140Z 03003KT M09/M14 A3023 RMK A01 T10931143  RH  067%=      5-min Rain = 0
KEA1 131141Z 04003KT M09/M14 A3023 RMK A01 T10941141  RH  068%=      5-min Rain = 0
KEA1 131142Z 05004KT M09/M14 A3023 RMK A01 T10921136  RH  070%=      5-min Rain = 0
KEA1 131143Z 05004KT M09/M13 A3023 RMK A01 T10891132  RH  071%=      5-min Rain = 0
KEA1 131144Z 06005KT M09/M13 A3023 RMK A01 T10881132  RH  070%=      5-min Rain = 0
KEA1 131145Z 06005KT M09/M13 A3023 RMK A01 T10871131  RH  070%=      5-min Rain = 0
KEA1 131146Z 07005KT M09/M13 A3023 RMK A01 T10861130  RH  070%=      5-min Rain = 0
KEA1 131147Z 07005KT M09/M13 A3023 RMK A01 T10851129  RH  070%=      5-min Rain = 0
KEA1 131148Z 07005KT M08/M13 A3023 RMK A01 T10841130  RH  070%=      5-min Rain = 0
KEA1 131149Z 06005KT M08/M13 A3023 RMK A01 T10841131  RH  069%=      5-min Rain = 0
KEA1 131150Z 06005KT M08/M13 A3023 RMK A01 T10841132  RH  068%=      5-min Rain = 0
KEA1 131151Z 06005KT M09/M14 A3023 RMK A01 T10861135  RH  067%=      5-min Rain = 0
KEA1 131152Z 06005KT M09/M14 A3023 RMK A01 T10881138  RH  067%=      5-min Rain = 0
KEA1 131153Z 05006KT M09/M14 A3023 RMK A01 T10881139  RH  067%=      5-min Rain = 0
KEA1 131154Z 05005KT M09/M14 A3023 RMK A01 T10891139  RH  067%=      5-min Rain = 0
KEA1 131155Z 05005KT M09/M14 A3023 RMK A01 T10891139  RH  067%=      5-min Rain = 0
KEA1 131156Z 05005KT M09/M14 A3023 RMK A01 T10891138  RH  068%=      5-min Rain = 0
KEA1 131157Z 05005KT M09/M14 A3023 RMK A01 T10881137  RH  068%=      5-min Rain = 0
KEA1 131158Z 06004KT M09/M14 A3023 RMK A01 T10871135  RH  068%=      5-min Rain = 0
KEA1 131159Z 06004KT M09/M13 A3024 RMK A01 T10851132  RH  069%=      5-min Rain = 0
KEA1 131200Z 06004KT M08/M13 A3024 RMK A01 T10831130  RH  069%=      5-min Rain = 0
KEA1 131201Z 07004KT M08/M13 A3024 RMK A01 T10821131  RH  068%=      5-min Rain = 0
KEA1 131202Z 06005KT M08/M13 A3023 RMK A01 T10811130  RH  068%=      5-min Rain = 0
KEA1 131203Z 07005KT M08/M13 A3023 RMK A01 T10811132  RH  067%=      5-min Rain = 0
KEA1 131204Z 06006KT M08/M13 A3024 RMK A01 T10811132  RH  067%=      5-min Rain = 0
KEA1 131205Z 06006KT M08/M13 A3024 RMK A01 T10821134  RH  066%=      5-min Rain = 0
KEA1 131206Z 06006KT M08/M14 A3024 RMK A01 T10831135  RH  066%=      5-min Rain = 0
KEA1 131207Z 05005KT M08/M14 A3024 RMK A01 T10841135  RH  066%=      5-min Rain = 0
KEA1 131208Z 04006KT M09/M14 A3024 RMK A01 T10851136  RH  066%=      5-min Rain = 0
KEA1 131209Z 03005KT M09/M14 A3024 RMK A01 T10851136  RH  066%=      5-min Rain = 0
KEA1 131210Z 02005KT M09/M14 A3024 RMK A01 T10861138  RH  066%=      5-min Rain = 0
KEA1 131211Z 02005KT M09/M14 A3024 RMK A01 T10881141  RH  066%=      5-min Rain = 0
KEA1 131212Z 01006KT M09/M14 A3024 RMK A01 T10901142  RH  066%=      5-min Rain = 0
KEA1 131213Z 01006KT M09/M14 A3025 RMK A01 T10901140  RH  067%=      5-min Rain = 0
KEA1 131214Z 01005KT M09/M14 A3025 RMK A01 T10901139  RH  068%=      5-min Rain = 0
KEA1 131215Z 00005KT M09/M14 A3025 RMK A01 T10901139  RH  068%=      5-min Rain = 0
KEA1 131216Z 35004KT M09/M14 A3025 RMK A01 T10921142  RH  067%=      5-min Rain = 0
KEA1 131217Z 36004KT M09/M14 A3025 RMK A01 T10931144  RH  067%=      5-min Rain = 0
KEA1 131218Z 01004KT M10/M14 A3025 RMK A01 T10951144  RH  067%=      5-min Rain = 0
KEA1 131219Z 02004KT M09/M14 A3025 RMK A01 T10941142  RH  068%=      5-min Rain = 0
KEA1 131220Z 03004KT M09/M14 A3025 RMK A01 T10921138  RH  070%=      5-min Rain = 0
KEA1 131221Z 03004KT M09/M13 A3025 RMK A01 T10891133  RH  070%=      5-min Rain = 0
KEA1 131222Z 03004KT M09/M13 A3025 RMK A01 T10871131  RH  070%=      5-min Rain = 0
KEA1 131223Z 03004KT M09/M13 A3025 RMK A01 T10861131  RH  069%=      5-min Rain = 0
KEA1 131224Z 03005KT M09/M13 A3025 RMK A01 T10851133  RH  068%=      5-min Rain = 0
KEA1 131225Z 02005KT M09/M13 A3025 RMK A01 T10851134  RH  068%=      5-min Rain = 0
KEA1 131226Z 02005KT M09/M13 A3025 RMK A01 T10851134  RH  068%=      5-min Rain = 0
KEA1 131227Z 01005KT M09/M14 A3025 RMK A01 T10851135  RH  067%=      5-min Rain = 0
KEA1 131228Z 01005KT M09/M14 A3025 RMK A01 T10861136  RH  067%=      5-min Rain = 0
KEA1 131229Z 02005KT M09/M14 A3025 RMK A01 T10871137  RH  067%=      5-min Rain = 0
KEA1 131230Z 03005KT M09/M14 A3025 RMK A01 T10881137  RH  068%=      5-min Rain = 0
KEA1 131231Z 04005KT M09/M14 A3025 RMK A01 T10891137  RH  068%=      5-min Rain = 0
KEA1 131232Z 05005KT M09/M14 A3025 RMK A01 T10891137  RH  068%=      5-min Rain = 0
KEA1 131233Z 05005KT M09/M14 A3025 RMK A01 T10891137  RH  069%=      5-min Rain = 0
KEA1 131234Z 05005KT M09/M14 A3025 RMK A01 T10881135  RH  069%=      5-min Rain = 0
KEA1 131235Z 04005KT M09/M13 A3025 RMK A01 T10871132  RH  069%=      5-min Rain = 0
KEA1 131236Z 04004KT M09/M13 A3025 RMK A01 T10861134  RH  069%=      5-min Rain = 0
KEA1 131237Z 03004KT M09/M14 A3025 RMK A01 T10861135  RH  068%=      5-min Rain = 0
KEA1 131238Z 02004KT M09/M14 A3026 RMK A01 T10861135  RH  068%=      5-min Rain = 0
KEA1 131239Z 02004KT M09/M14 A3026 RMK A01 T10881139  RH  066%=      5-min Rain = 0
KEA1 131240Z 03004KT M09/M14 A3026 RMK A01 T10891140  RH  067%=      5-min Rain = 0
KEA1 131241Z 04004KT M09/M14 A3026 RMK A01 T10891138  RH  068%=      5-min Rain = 0
KEA1 131242Z 05004KT M09/M14 A3026 RMK A01 T10891136  RH  069%=      5-min Rain = 0
KEA1 131243Z 06004KT M09/M13 A3026 RMK A01 T10871133  RH  069%=      5-min Rain = 0
KEA1 131244Z 07004KT M09/M13 A3026 RMK A01 T10861133  RH  069%=      5-min Rain = 0
KEA1 131245Z 07004KT M09/M13 A3026 RMK A01 T10861134  RH  068%=      5-min Rain = 0
KEA1 131246Z 07003KT M09/M14 A3026 RMK A01 T10861136  RH  068%=      5-min Rain = 0
KEA1 131247Z 07003KT M09/M14 A3026 RMK A01 T10871136  RH  067%=      5-min Rain = 0
KEA1 131248Z 07003KT M09/M14 A3026 RMK A01 T10871137  RH  067%=      5-min Rain = 0
KEA1 131249Z 07004KT M09/M14 A3026 RMK A01 T10871136  RH  068%=      5-min Rain = 0
KEA1 131250Z 07003KT M09/M14 A3026 RMK A01 T10871135  RH  068%=      5-min Rain = 0
KEA1 131251Z 07003KT M09/M14 A3026 RMK A01 T10871136  RH  068%=      5-min Rain = 0
KEA1 131252Z 07003KT M09/M14 A3026 RMK A01 T10871136  RH  067%=      5-min Rain = 0
KEA1 131253Z 06003KT M09/M13 A3026 RMK A01 T10871134  RH  068%=      5-min Rain = 0
KEA1 131254Z 06003KT M09/M13 A3026 RMK A01 T10851133  RH  069%=      5-min Rain = 0
KEA1 131255Z 07003KT M09/M13 A3026 RMK A01 T10851133  RH  068%=      5-min Rain = 0
KEA1 131256Z 07003KT M09/M13 A3026 RMK A01 T10851134  RH  068%=      5-min Rain = 0
KEA1 131257Z 07002KT M09/M14 A3026 RMK A01 T10851136  RH  067%=      5-min Rain = 0
KEA1 131258Z 07003KT M09/M14 A3026 RMK A01 T10851135  RH  067%=      5-min Rain = 0
KEA1 131259Z 07004KT M09/M13 A3025 RMK A01 T10851133  RH  068%=      5-min Rain = 0
KEA1 131300Z 07004KT M08/M13 A3025 RMK A01 T10841132  RH  068%=      5-min Rain = 0
KEA1 131301Z 07004KT M08/M13 A3025 RMK A01 T10841133  RH  068%=      5-min Rain = 0
KEA1 131302Z 07003KT M08/M13 A3026 RMK A01 T10841133  RH  068%=      5-min Rain = 0
KEA1 131303Z 07003KT M08/M13 A3026 RMK A01 T10841133  RH  067%=      5-min Rain = 0
KEA1 131304Z 07003KT M08/M14 A3026 RMK A01 T10841135  RH  067%=      5-min Rain = 0
KEA1 131305Z 08002KT M08/M14 A3026 RMK A01 T10841135  RH  067%=      5-min Rain = 0
KEA1 131306Z 08002KT M09/M14 A3026 RMK A01 T10851136  RH  067%=      5-min Rain = 0
KEA1 131307Z 08003KT M09/M14 A3026 RMK A01 T10861137  RH  067%=      5-min Rain = 0
KEA1 131308Z 08003KT M09/M14 A3026 RMK A01 T10861135  RH  068%=      5-min Rain = 0
KEA1 131309Z 08002KT M09/M13 A3026 RMK A01 T10861134  RH  068%=      5-min Rain = 0
KEA1 131310Z 08003KT M09/M14 A3026 RMK A01 T10861135  RH  068%=      5-min Rain = 0
KEA1 131311Z 07003KT M09/M14 A3026 RMK A01 T10861135  RH  068%=      5-min Rain = 0
KEA1 131312Z 07003KT M09/M13 A3026 RMK A01 T10861134  RH  068%=      5-min Rain = 0
KEA1 131313Z 07003KT M09/M13 A3026 RMK A01 T10861133  RH  069%=      5-min Rain = 0
KEA1 131314Z 06003KT M09/M13 A3026 RMK A01 T10861132  RH  069%=      5-min Rain = 0
KEA1 131315Z 06003KT M08/M13 A3026 RMK A01 T10841128  RH  070%=      5-min Rain = 0
KEA1 131316Z 06003KT M08/M13 A3026 RMK A01 T10831127  RH  070%=      5-min Rain = 0
KEA1 131317Z 06003KT M08/M13 A3026 RMK A01 T10821128  RH  070%=      5-min Rain = 0
KEA1 131318Z 07003KT M08/M13 A3026 RMK A01 T10821129  RH  069%=      5-min Rain = 0
KEA1 131319Z 08004KT M08/M13 A3026 RMK A01 T10821130  RH  068%=      5-min Rain = 0
KEA1 131320Z 08003KT M08/M13 A3026 RMK A01 T10811129  RH  068%=      5-min Rain = 0
KEA1 131321Z 09003KT M08/M13 A3026 RMK A01 T10811130  RH  068%=      5-min Rain = 0
KEA1 131322Z 09003KT M08/M13 A3026 RMK A01 T10811131  RH  067%=      5-min Rain = 0
KEA1 131323Z 08003KT M08/M13 A3026 RMK A01 T10821132  RH  067%=      5-min Rain = 0
KEA1 131324Z 08004KT M08/M13 A3026 RMK A01 T10821132  RH  067%=      5-min Rain = 0
KEA1 131325Z 08004KT M08/M13 A3026 RMK A01 T10821129  RH  069%=      5-min Rain = 0
KEA1 131326Z 08004KT M08/M13 A3026 RMK A01 T10801126  RH  069%=      5-min Rain = 0
KEA1 131327Z 07004KT M08/M12 A3026 RMK A01 T10781124  RH  069%=      5-min Rain = 0
KEA1 131328Z 07005KT M08/M12 A3026 RMK A01 T10761124  RH  068%=      5-min Rain = 0
KEA1 131329Z 07005KT M08/M12 A3026 RMK A01 T10751124  RH  068%=      5-min Rain = 0
KEA1 131330Z 07005KT M08/M12 A3027 RMK A01 T10751124  RH  068%=      5-min Rain = 0
KEA1 131331Z 07004KT M07/M12 A3027 RMK A01 T10741124  RH  068%=      5-min Rain = 0
KEA1 131332Z 07004KT M07/M12 A3027 RMK A01 T10741124  RH  067%=      5-min Rain = 0
KEA1 131333Z 06004KT M07/M12 A3027 RMK A01 T10741124  RH  067%=      5-min Rain = 0
KEA1 131334Z 06003KT M07/M13 A3027 RMK A01 T10741125  RH  067%=      5-min Rain = 0
KEA1 131335Z 05003KT M07/M13 A3027 RMK A01 T10741125  RH  067%=      5-min Rain = 0
KEA1 131336Z 04003KT M07/M13 A3027 RMK A01 T10741126  RH  066%=      5-min Rain = 0
KEA1 131337Z 04002KT M08/M13 A3028 RMK A01 T10751129  RH  065%=      5-min Rain = 0
KEA1 131338Z 04002KT M08/M13 A3028 RMK A01 T10771131  RH  065%=      5-min Rain = 0
KEA1 131339Z 05002KT M08/M13 A3028 RMK A01 T10781133  RH  065%=      5-min Rain = 0
KEA1 131340Z 06002KT M08/M13 A3028 RMK A01 T10791134  RH  065%=      5-min Rain = 0
KEA1 131341Z 07002KT M08/M13 A3027 RMK A01 T10811133  RH  066%=      5-min Rain = 0
KEA1 131342Z 08003KT M08/M13 A3027 RMK A01 T10801129  RH  068%=      5-min Rain = 0
KEA1 131343Z 07003KT M08/M13 A3027 RMK A01 T10791128  RH  068%=      5-min Rain = 0
KEA1 131344Z 06003KT M08/M13 A3027 RMK A01 T10781126  RH  069%=      5-min Rain = 0
KEA1 131345Z 04003KT M08/M13 A3027 RMK A01 T10771125  RH  068%=      5-min Rain = 0
KEA1 131346Z 03003KT M08/M13 A3027 RMK A01 T10771129  RH  066%=      5-min Rain = 0
KEA1 131347Z 02002KT M08/M13 A3027 RMK A01 T10781130  RH  066%=      5-min Rain = 0
KEA1 131348Z 03002KT M08/M13 A3027 RMK A01 T10781128  RH  067%=      5-min Rain = 0
KEA1 131349Z 02003KT M08/M13 A3027 RMK A01 T10781126  RH  068%=      5-min Rain = 0
KEA1 131350Z 03003KT M08/M13 A3027 RMK A01 T10771125  RH  068%=      5-min Rain = 0
KEA1 131351Z 04002KT M08/M13 A3027 RMK A01 T10761125  RH  068%=      5-min Rain = 0
KEA1 131352Z 04002KT M08/M12 A3027 RMK A01 T10761124  RH  068%=      5-min Rain = 0
KEA1 131353Z 04002KT M08/M12 A3027 RMK A01 T10751124  RH  068%=      5-min Rain = 0
KEA1 131354Z 04002KT M08/M12 A3027 RMK A01 T10751124  RH  068%=      5-min Rain = 0
KEA1 131355Z 04002KT M08/M12 A3027 RMK A01 T10751123  RH  068%=      5-min Rain = 0
KEA1 131356Z 04002KT M08/M12 A3027 RMK A01 T10751123  RH  068%=      5-min Rain = 0
KEA1 131357Z 04002KT M07/M12 A3027 RMK A01 T10741123  RH  068%=      5-min Rain = 0
KEA1 131358Z 03002KT M07/M12 A3027 RMK A01 T10741123  RH  068%=      5-min Rain = 0
KEA1 131359Z 03002KT M07/M12 A3027 RMK A01 T10741123  RH  068%=      5-min Rain = 0
KEA1 131400Z 02002KT M07/M12 A3027 RMK A01 T10741124  RH  068%=      5-min Rain = 0
KEA1 131401Z 03002KT M07/M13 A3027 RMK A01 T10741125  RH  067%=      5-min Rain = 0
KEA1 131402Z 04003KT M07/M12 A3027 RMK A01 T10741124  RH  068%=      5-min Rain = 0
KEA1 131403Z 05002KT M07/M12 A3027 RMK A01 T10741122  RH  068%=      5-min Rain = 0
KEA1 131404Z 06002KT M07/M12 A3027 RMK A01 T10731120  RH  069%=      5-min Rain = 0
KEA1 131405Z 06002KT M07/M12 A3027 RMK A01 T10721120  RH  069%=      5-min Rain = 0
KEA1 131406Z 06002KT M07/M12 A3027 RMK A01 T10711121  RH  068%=      5-min Rain = 0
KEA1 131407Z 06002KT M07/M13 A3028 RMK A01 T10721127  RH  065%=      5-min Rain = 0
KEA1 131408Z 05002KT M07/M13 A3028 RMK A01 T10721130  RH  063%=      5-min Rain = 0
KEA1 131409Z 03002KT M07/M13 A3028 RMK A01 T10731128  RH  065%=      5-min Rain = 0
KEA1 131410Z 03002KT M07/M13 A3028 RMK A01 T10741127  RH  065%=      5-min Rain = 0
KEA1 131411Z 03002KT M08/M13 A3028 RMK A01 T10751130  RH  064%=      5-min Rain = 0
KEA1 131412Z 04002KT M08/M13 A3028 RMK A01 T10761133  RH  064%=      5-min Rain = 0
KEA1 131413Z 05003KT M08/M13 A3028 RMK A01 T10761129  RH  066%=      5-min Rain = 0
KEA1 131414Z 06003KT M07/M12 A3028 RMK A01 T10741122  RH  069%=      5-min Rain = 0
KEA1 131415Z 06003KT M07/M12 A3028 RMK A01 T10721118  RH  069%=      5-min Rain = 0
KEA1 131416Z 06003KT M07/M12 A3028 RMK A01 T10701118  RH  069%=      5-min Rain = 0
KEA1 131417Z 07002KT M07/M12 A3028 RMK A01 T10691118  RH  068%=      5-min Rain = 0
KEA1 131418Z 08002KT M07/M12 A3028 RMK A01 T10681120  RH  066%=      5-min Rain = 0
KEA1 131419Z 08002KT M07/M13 A3028 RMK A01 T10681126  RH  063%=      5-min Rain = 0
KEA1 131420Z 08002KT M07/M13 A3028 RMK A01 T10691131  RH  062%=      5-min Rain = 0
KEA1 131421Z 08002KT M07/M13 A3028 RMK A01 T10701132  RH  061%=      5-min Rain = 0
KEA1 131422Z 08002KT M07/M13 A3028 RMK A01 T10701131  RH  062%=      5-min Rain = 0
KEA1 131423Z 08001KT M07/M13 A3028 RMK A01 T10711130  RH  062%=      5-min Rain = 0
KEA1 131424Z 10001KT M07/M13 A3028 RMK A01 T10701127  RH  064%=      5-min Rain = 0
KEA1 131425Z 11002KT M07/M13 A3028 RMK A01 T10701127  RH  064%=      5-min Rain = 0
KEA1 131426Z 13003KT M07/M13 A3028 RMK A01 T10691127  RH  063%=      5-min Rain = 0
KEA1 131427Z 13003KT M07/M13 A3028 RMK A01 T10691126  RH  064%=      5-min Rain = 0
KEA1 131428Z 14003KT M07/M12 A3028 RMK A01 T10671124  RH  064%=      5-min Rain = 0
KEA1 131429Z 14002KT M07/M12 A3028 RMK A01 T10661122  RH  065%=      5-min Rain = 0
KEA1 131430Z 14001KT M07/M12 A3028 RMK A01 T10651119  RH  065%=      5-min Rain = 0
KEA1 131431Z 13001KT M06/M12 A3028 RMK A01 T10641119  RH  065%=      5-min Rain = 0
KEA1 131432Z 10000KT M06/M12 A3028 RMK A01 T10631118  RH  065%=      5-min Rain = 0
KEA1 131433Z 00000KT M06/M12 A3029 RMK A01 T10621117  RH  065%=      5-min Rain = 0
KEA1 131434Z 00000KT M06/M12 A3029 RMK A01 T10611117  RH  065%=      5-min Rain = 0
KEA1 131435Z 06000KT M06/M12 A3029 RMK A01 T10611117  RH  064%=      5-min Rain = 0
KEA1 131436Z 05000KT M06/M12 A3029 RMK A01 T10601118  RH  064%=      5-min Rain = 0
KEA1 131437Z 05000KT M06/M12 A3029 RMK A01 T10591117  RH  064%=      5-min Rain = 0
KEA1 131438Z 00000KT M06/M12 A3029 RMK A01 T10591116  RH  064%=      5-min Rain = 0
KEA1 131439Z 07000KT M06/M12 A3029 RMK A01 T10581115  RH  064%=      5-min Rain = 0
KEA1 131440Z 09000KT M06/M12 A3029 RMK A01 T10581115  RH  064%=      5-min Rain = 0
KEA1 131441Z 09001KT M06/M11 A3029 RMK A01 T10571114  RH  064%=      5-min Rain = 0
KEA1 131442Z 09001KT M06/M11 A3029 RMK A01 T10561114  RH  064%=      5-min Rain = 0
KEA1 131443Z 10001KT M06/M11 A3029 RMK A01 T10551113  RH  064%=      5-min Rain = 0
KEA1 131444Z 10001KT M05/M11 A3029 RMK A01 T10541112  RH  064%=      5-min Rain = 0
KEA1 131445Z 08002KT M05/M11 A3029 RMK A01 T10541112  RH  064%=      5-min Rain = 0
KEA1 131446Z 07001KT M05/M11 A3029 RMK A01 T10531112  RH  064%=      5-min Rain = 0
KEA1 131447Z 07001KT M05/M11 A3029 RMK A01 T10531111  RH  064%=      5-min Rain = 0
KEA1 131448Z 08001KT M05/M11 A303 RMK A01 T10521111  RH  063%=      5-min Rain = 0
KEA1 131449Z 10002KT M05/M11 A303 RMK A01 T10511110  RH  063%=      5-min Rain = 0
KEA1 131450Z 10002KT M05/M11 A303 RMK A01 T10501109  RH  063%=      5-min Rain = 0
KEA1 131451Z 11001KT M05/M11 A303 RMK A01 T10501109  RH  063%=      5-min Rain = 0
KEA1 131452Z 10001KT M05/M11 A303 RMK A01 T10491108  RH  063%=      5-min Rain = 0
KEA1 131453Z 12001KT M05/M11 A303 RMK A01 T10481108  RH  063%=      5-min Rain = 0
KEA1 131454Z 11001KT M05/M11 A303 RMK A01 T10471108  RH  063%=      5-min Rain = 0
KEA1 131455Z 10001KT M05/M11 A303 RMK A01 T10461108  RH  062%=      5-min Rain = 0
KEA1 131456Z 08001KT M05/M11 A303 RMK A01 T10471108  RH  062%=      5-min Rain = 0
KEA1 131457Z 06000KT M05/M11 A303 RMK A01 T10461107  RH  062%=      5-min Rain = 0
KEA1 131458Z 03001KT M05/M11 A303 RMK A01 T10451106  RH  062%=      5-min Rain = 0
KEA1 131459Z 05001KT M04/M11 A303 RMK A01 T10441106  RH  062%=      5-min Rain = 0
KEA1 131500Z 06001KT M04/M11 A303 RMK A01 T10441106  RH  062%=      5-min Rain = 0
KEA1 131501Z 00000KT M04/M11 A303 RMK A01 T10431105  RH  062%=      5-min Rain = 0
KEA1 131502Z 00000KT M04/M11 A3031 RMK A01 T10431105  RH  062%=      5-min Rain = 0
KEA1 131503Z 32000KT M04/M10 A3031 RMK A01 T10421104  RH  062%=      5-min Rain = 0
KEA1 131504Z 31000KT M04/M11 A3031 RMK A01 T10411105  RH  061%=      5-min Rain = 0
KEA1 131505Z 27001KT M04/M11 A3031 RMK A01 T10411105  RH  061%=      5-min Rain = 0
KEA1 131506Z 29001KT M04/M11 A3031 RMK A01 T10411106  RH  061%=      5-min Rain = 0
KEA1 131507Z 30001KT M04/M11 A3031 RMK A01 T10401105  RH  061%=      5-min Rain = 0
KEA1 131508Z 32001KT M04/M11 A3031 RMK A01 T10401105  RH  061%=      5-min Rain = 0
KEA1 131509Z 33002KT M04/M11 A3031 RMK A01 T10401105  RH  061%=      5-min Rain = 0
KEA1 131510Z 33003KT M04/M11 A3031 RMK A01 T10401105  RH  060%=      5-min Rain = 0
KEA1 131511Z 33004KT M04/M11 A3031 RMK A01 T10391106  RH  060%=      5-min Rain = 0
KEA1 131512Z 33003KT M04/M11 A3031 RMK A01 T10401107  RH  060%=      5-min Rain = 0
KEA1 131513Z 35004KT M04/M11 A3031 RMK A01 T10401107  RH  060%=      5-min Rain = 0
KEA1 131514Z 34003KT M04/M11 A3031 RMK A01 T10401107  RH  060%=      5-min Rain = 0
KEA1 131515Z 33002KT M04/M11 A3031 RMK A01 T10411107  RH  060%=      5-min Rain = 0
KEA1 131516Z 33002KT M04/M11 A3031 RMK A01 T10401106  RH  060%=      5-min Rain = 0
KEA1 131517Z 33003KT M04/M11 A3031 RMK A01 T10411106  RH  060%=      5-min Rain = 0
KEA1 131518Z 32003KT M04/M11 A3031 RMK A01 T10411106  RH  061%=      5-min Rain = 0
KEA1 131519Z 33003KT M04/M11 A3031 RMK A01 T10411105  RH  061%=      5-min Rain = 0
KEA1 131520Z 34003KT M04/M11 A3031 RMK A01 T10401105  RH  061%=      5-min Rain = 0
KEA1 131521Z 32001KT M04/M10 A3031 RMK A01 T10401104  RH  061%=      5-min Rain = 0
KEA1 131522Z 31002KT M04/M11 A3031 RMK A01 T10401105  RH  061%=      5-min Rain = 0
KEA1 131523Z 32002KT M04/M10 A3031 RMK A01 T10401104  RH  061%=      5-min Rain = 0
KEA1 131524Z 34002KT M04/M10 A3031 RMK A01 T10391103  RH  061%=      5-min Rain = 0
KEA1 131525Z 35003KT M04/M10 A3031 RMK A01 T10381102  RH  061%=      5-min Rain = 0
KEA1 131526Z 35003KT M04/M10 A3031 RMK A01 T10381102  RH  061%=      5-min Rain = 0
KEA1 131527Z 36004KT M04/M10 A3031 RMK A01 T10371102  RH  061%=      5-min Rain = 0
KEA1 131528Z 35003KT M04/M10 A3032 RMK A01 T10371101  RH  061%=      5-min Rain = 0
KEA1 131529Z 35002KT M04/M10 A3032 RMK A01 T10361100  RH  061%=      5-min Rain = 0
KEA1 131530Z 35001KT M04/M10 A3032 RMK A01 T10361100  RH  061%=      5-min Rain = 0
KEA1 131531Z 34002KT M04/M10 A3032 RMK A01 T10361100  RH  061%=      5-min Rain = 0
KEA1 131532Z 34003KT M04/M10 A3032 RMK A01 T10351099  RH  061%=      5-min Rain = 0
KEA1 131533Z 33002KT M03/M10 A3032 RMK A01 T10341099  RH  061%=      5-min Rain = 0
KEA1 131534Z 34002KT M03/M10 A3032 RMK A01 T10341099  RH  061%=      5-min Rain = 0
KEA1 131535Z 33001KT M03/M10 A3032 RMK A01 T10341098  RH  061%=      5-min Rain = 0
KEA1 131536Z 33001KT M03/M10 A3032 RMK A01 T10331098  RH  061%=      5-min Rain = 0
KEA1 131537Z 34001KT M03/M10 A3032 RMK A01 T10331098  RH  061%=      5-min Rain = 0
KEA1 131538Z 33002KT M03/M10 A3032 RMK A01 T10341099  RH  061%=      5-min Rain = 0
KEA1 131539Z 34002KT M03/M10 A3032 RMK A01 T10341099  RH  061%=      5-min Rain = 0
KEA1 131540Z 34003KT M03/M10 A3032 RMK A01 T10331098  RH  061%=      5-min Rain = 0
KEA1 131541Z 33002KT M03/M10 A3032 RMK A01 T10331098  RH  061%=      5-min Rain = 0
KEA1 131542Z 32002KT M03/M10 A3032 RMK A01 T10321097  RH  061%=      5-min Rain = 0
KEA1 131543Z 34002KT M03/M10 A3032 RMK A01 T10311097  RH  061%=      5-min Rain = 0
KEA1 131544Z 33003KT M03/M10 A3032 RMK A01 T10311097  RH  061%=      5-min Rain = 0
KEA1 131545Z 33002KT M03/M10 A3032 RMK A01 T10311097  RH  060%=      5-min Rain = 0
KEA1 131546Z 34001KT M03/M10 A3032 RMK A01 T10311097  RH  060%=      5-min Rain = 0
KEA1 131547Z 33001KT M03/M10 A3032 RMK A01 T10311097  RH  060%=      5-min Rain = 0
KEA1 131548Z 33001KT M03/M10 A3032 RMK A01 T10301096  RH  060%=      5-min Rain = 0
KEA1 131549Z 35001KT M03/M10 A3032 RMK A01 T10301097  RH  060%=      5-min Rain = 0
KEA1 131550Z 35000KT M03/M10 A3032 RMK A01 T10291096  RH  060%=      5-min Rain = 0
KEA1 131551Z 31001KT M03/M10 A3032 RMK A01 T10281095  RH  060%=      5-min Rain = 0
KEA1 131552Z 28002KT M03/M10 A3032 RMK A01 T10281096  RH  059%=      5-min Rain = 0
KEA1 131553Z 27001KT M03/M10 A3032 RMK A01 T10271096  RH  059%=      5-min Rain = 0
KEA1 131554Z 28000KT M03/M10 A3032 RMK A01 T10281096  RH  059%=      5-min Rain = 0
KEA1 131555Z 00000KT M03/M10 A3032 RMK A01 T10271095  RH  059%=      5-min Rain = 0
KEA1 131556Z 25000KT M03/M10 A3032 RMK A01 T10261095  RH  059%=      5-min Rain = 0
KEA1 131557Z 25002KT M03/M10 A3032 RMK A01 T10251095  RH  059%=      5-min Rain = 0
KEA1 131558Z 26002KT M03/M10 A3032 RMK A01 T10251095  RH  059%=      5-min Rain = 0
KEA1 131559Z 23001KT M03/M10 A3032 RMK A01 T10251095  RH  058%=      5-min Rain = 0
KEA1 131600Z 25001KT M03/M10 A3032 RMK A01 T10251095  RH  059%=      5-min Rain = 0
KEA1 131601Z 24001KT M02/M09 A3032 RMK A01 T10241094  RH  059%=      5-min Rain = 0
KEA1 131602Z 21001KT M02/M09 A3032 RMK A01 T10241094  RH  059%=      5-min Rain = 0
KEA1 131603Z 23002KT M02/M09 A3032 RMK A01 T10241094  RH  058%=      5-min Rain = 0
KEA1 131604Z 22002KT M02/M09 A3032 RMK A01 T10231093  RH  059%=      5-min Rain = 0
KEA1 131605Z 23002KT M02/M09 A3032 RMK A01 T10231093  RH  059%=      5-min Rain = 0
KEA1 131606Z 23001KT M02/M09 A3032 RMK A01 T10221093  RH  059%=      5-min Rain = 0
KEA1 131607Z 27002KT M02/M09 A3032 RMK A01 T10211092  RH  059%=      5-min Rain = 0
KEA1 131608Z 28002KT M02/M09 A3032 RMK A01 T10201091  RH  058%=      5-min Rain = 0
KEA1 131609Z 27002KT M02/M09 A3032 RMK A01 T10191091  RH  058%=      5-min Rain = 0
KEA1 131610Z 24003KT M02/M09 A3032 RMK A01 T10201092  RH  058%=      5-min Rain = 0
KEA1 131611Z 23002KT M02/M09 A3032 RMK A01 T10201093  RH  057%=      5-min Rain = 0
KEA1 131612Z 22002KT M02/M09 A3032 RMK A01 T10201094  RH  057%=      5-min Rain = 0
KEA1 131613Z 16001KT M02/M09 A3032 RMK A01 T10211093  RH  058%=      5-min Rain = 0
KEA1 131614Z 18001KT M02/M09 A3032 RMK A01 T10191091  RH  058%=      5-min Rain = 0
KEA1 131615Z 20003KT M02/M09 A3032 RMK A01 T10171090  RH  058%=      5-min Rain = 0
KEA1 131616Z 21003KT M02/M09 A3032 RMK A01 T10151090  RH  057%=      5-min Rain = 0
KEA1 131617Z 19002KT M01/M09 A3032 RMK A01 T10141091  RH  056%=      5-min Rain = 0
KEA1 131618Z 20005KT M01/M09 A3032 RMK A01 T10131092  RH  055%=      5-min Rain = 0
KEA1 131619Z 25005KT M01/M09 A3032 RMK A01 T10101090  RH  055%=      5-min Rain = 0
KEA1 131620Z 25003KT M01/M09 A3032 RMK A01 T10101090  RH  055%=      5-min Rain = 0
KEA1 131621Z 24003KT M01/M09 A3032 RMK A01 T10111090  RH  055%=      5-min Rain = 0
KEA1 131622Z 20003KT M01/M09 A3032 RMK A01 T10111088  RH  056%=      5-min Rain = 0
KEA1 131623Z 20004KT M01/M09 A3032 RMK A01 T10111091  RH  055%=      5-min Rain = 0
KEA1 131624Z 22004KT M01/M09 A3032 RMK A01 T10091090  RH  054%=      5-min Rain = 0
KEA1 131625Z 23003KT M01/M09 A3032 RMK A01 T10071088  RH  054%=      5-min Rain = 0
KEA1 131626Z 20004KT M01/M09 A3032 RMK A01 T10071088  RH  054%=      5-min Rain = 0
KEA1 131627Z 18004KT M00/M09 A3032 RMK A01 T10031087  RH  053%=      5-min Rain = 0
KEA1 131628Z 21004KT 00/M09 A3032 RMK A01 T00021085  RH  052%=      5-min Rain = 0
KEA1 131629Z 24005KT 01/M08 A3032 RMK A01 T00061084  RH  051%=      5-min Rain = 0
KEA1 131630Z 22003KT 01/M08 A3032 RMK A01 T00061083  RH  051%=      5-min Rain = 0
KEA1 131631Z 20005KT 01/M08 A3032 RMK A01 T00081082  RH  051%=      5-min Rain = 0
KEA1 131632Z 21006KT 01/M08 A3032 RMK A01 T00091081  RH  051%=      5-min Rain = 0
KEA1 131633Z 22005KT 01/M08 A3032 RMK A01 T00101084  RH  049%=      5-min Rain = 0
KEA1 131634Z 21005KT 01/M08 A3032 RMK A01 T00101084  RH  049%=      5-min Rain = 0
KEA1 131635Z 20006KT 01/M08 A3031 RMK A01 T00101084  RH  050%=      5-min Rain = 0
KEA1 131636Z 19007KT 01/M08 A3031 RMK A01 T00101084  RH  050%=      5-min Rain = 0
KEA1 131637Z 24004KT 01/M08 A3031 RMK A01 T00101084  RH  050%=      5-min Rain = 0
KEA1 131638Z 24004KT 01/M08 A3031 RMK A01 T00101082  RH  050%=      5-min Rain = 0
KEA1 131639Z 22005KT 01/M08 A3032 RMK A01 T00121080  RH  050%=      5-min Rain = 0
KEA1 131640Z 22004KT 02/M08 A3032 RMK A01 T00151078  RH  050%=      5-min Rain = 0
KEA1 131641Z 25005KT 02/M08 A3032 RMK A01 T00161078  RH  050%=      5-min Rain = 0
KEA1 131642Z 25005KT 02/M08 A3032 RMK A01 T00181076  RH  050%=      5-min Rain = 0
KEA1 131643Z 25005KT 02/M08 A3032 RMK A01 T00161077  RH  050%=      5-min Rain = 0
KEA1 131644Z 24006KT 01/M08 A3032 RMK A01 T00141076  RH  051%=      5-min Rain = 0
KEA1 131645Z 23005KT 01/M08 A3032 RMK A01 T00141076  RH  051%=      5-min Rain = 0
KEA1 131646Z 24006KT 02/M07 A3032 RMK A01 T00171072  RH  052%=      5-min Rain = 0
KEA1 131647Z 20005KT 02/M07 A3032 RMK A01 T00201074  RH  050%=      5-min Rain = 0
KEA1 131648Z 20007KT 02/M07 A3032 RMK A01 T00231072  RH  049%=      5-min Rain = 0
KEA1 131649Z 19007KT 02/M07 A3032 RMK A01 T00231074  RH  049%=      5-min Rain = 0
KEA1 131650Z 20008KT 02/M07 A3032 RMK A01 T00241074  RH  048%=      5-min Rain = 0
KEA1 131651Z 21006KT 02/M08 A3032 RMK A01 T00231076  RH  048%=      5-min Rain = 0
KEA1 131652Z 24004KT 02/M08 A3032 RMK A01 T00221076  RH  048%=      5-min Rain = 0
KEA1 131653Z 25006KT 02/M08 A3032 RMK A01 T00221076  RH  048%=      5-min Rain = 0
KEA1 131654Z 25006KT 02/M08 A3032 RMK A01 T00211075  RH  049%=      5-min Rain = 0
KEA1 131655Z 25005KT 02/M08 A3032 RMK A01 T00211075  RH  049%=      5-min Rain = 0
KEA1 131656Z 27005KT 02/M07 A3032 RMK A01 T00231072  RH  049%=      5-min Rain = 0
KEA1 131657Z 27006KT 02/M07 A3032 RMK A01 T00241073  RH  049%=      5-min Rain = 0
KEA1 131658Z 26004KT 03/M07 A3032 RMK A01 T00261073  RH  048%=      5-min Rain = 0
KEA1 131659Z 26003KT 03/M07 A3032 RMK A01 T00271073  RH  048%=      5-min Rain = 0
KEA1 131700Z 25004KT 03/M07 A3032 RMK A01 T00291073  RH  047%=      5-min Rain = 0
KEA1 131701Z 26003KT 03/M07 A3032 RMK A01 T00311073  RH  046%=      5-min Rain = 0
KEA1 131702Z 27002KT 03/M07 A3032 RMK A01 T00321073  RH  046%=      5-min Rain = 0
KEA1 131703Z 28004KT 04/M07 A3032 RMK A01 T00361071  RH  046%=      5-min Rain = 0
KEA1 131704Z 26005KT 04/M07 A3032 RMK A01 T00411067  RH  045%=      5-min Rain = 0
KEA1 131705Z 26006KT 04/M07 A3032 RMK A01 T00391072  RH  044%=      5-min Rain = 0
KEA1 131706Z 26007KT 04/M07 A3032 RMK A01 T00371073  RH  045%=      5-min Rain = 0
KEA1 131707Z 25003KT 04/M07 A3032 RMK A01 T00361071  RH  045%=      5-min Rain = 0
KEA1 131708Z 29003KT 04/M07 A3032 RMK A01 T00351069  RH  046%=      5-min Rain = 0
KEA1 131709Z 25005KT 04/M07 A3032 RMK A01 T00361070  RH  046%=      5-min Rain = 0
KEA1 131710Z 24003KT 04/M07 A3032 RMK A01 T00371067  RH  047%=      5-min Rain = 0
KEA1 131711Z 27004KT 04/M07 A3032 RMK A01 T00401066  RH  046%=      5-min Rain = 0
KEA1 131712Z 27005KT 04/M07 A3032 RMK A01 T00431069  RH  044%=      5-min Rain = 0
KEA1 131713Z 30006KT 04/M07 A3032 RMK A01 T00441071  RH  043%=      5-min Rain = 0
KEA1 131714Z 29005KT 04/M07 A3032 RMK A01 T00441071  RH  043%=      5-min Rain = 0
KEA1 131715Z 27006KT 05/M07 A3032 RMK A01 T00461066  RH  044%=      5-min Rain = 0
KEA1 131716Z 25009KT 05/M06 A3032 RMK A01 T00491060  RH  045%=      5-min Rain = 0
KEA1 131717Z 26007KT 05/M06 A3032 RMK A01 T00501060  RH  045%=      5-min Rain = 0
KEA1 131718Z 25007KT 05/M06 A3032 RMK A01 T00511060  RH  045%=      5-min Rain = 0
KEA1 131719Z 25007KT 05/M06 A3032 RMK A01 T00511058  RH  045%=      5-min Rain = 0
KEA1 131720Z 24006KT 05/M06 A3032 RMK A01 T00501058  RH  046%=      5-min Rain = 0
KEA1 131721Z 24007KT 05/M06 A3032 RMK A01 T00491057  RH  046%=      5-min Rain = 0
KEA1 131722Z 23007KT 05/M06 A3032 RMK A01 T00491055  RH  047%=      5-min Rain = 0
KEA1 131723Z 23008KT 05/M06 A3031 RMK A01 T00481056  RH  047%=      5-min Rain = 0
KEA1 131724Z 23009KT 05/M06 A3031 RMK A01 T00471055  RH  047%=      5-min Rain = 0
KEA1 131725Z 24008KT 05/M06 A3032 RMK A01 T00481055  RH  047%=      5-min Rain = 0
KEA1 131726Z 25007KT 05/M06 A3032 RMK A01 T00491055  RH  047%=      5-min Rain = 0
KEA1 131727Z 25007KT 05/M06 A3031 RMK A01 T00491056  RH  047%=      5-min Rain = 0
KEA1 131728Z 25008KT 05/M06 A3031 RMK A01 T00471057  RH  047%=      5-min Rain = 0
KEA1 131729Z 24007KT 05/M06 A3031 RMK A01 T00471057  RH  047%=      5-min Rain = 0
KEA1 131730Z 25006KT 05/M06 A3031 RMK A01 T00461057  RH  047%=      5-min Rain = 0
KEA1 131731Z 25007KT 05/M06 A3031 RMK A01 T00471057  RH  047%=      5-min Rain = 0
KEA1 131732Z 26006KT 05/M06 A3031 RMK A01 T00481057  RH  047%=      5-min Rain = 0
KEA1 131733Z 26007KT 05/M06 A3031 RMK A01 T00491057  RH  046%=      5-min Rain = 0
KEA1 131734Z 26008KT 05/M06 A3031 RMK A01 T00501056  RH  046%=      5-min Rain = 0
KEA1 131735Z 26007KT 05/M06 A3031 RMK A01 T00501057  RH  046%=      5-min Rain = 0
KEA1 131736Z 27006KT 05/M06 A3031 RMK A01 T00501056  RH  046%=      5-min Rain = 0
KEA1 131737Z 26006KT 05/M06 A3031 RMK A01 T00531055  RH  046%=      5-min Rain = 0
KEA1 131738Z 24006KT 06/M05 A3031 RMK A01 T00551054  RH  045%=      5-min Rain = 0
KEA1 131739Z 24006KT 06/M06 A3031 RMK A01 T00551057  RH  044%=      5-min Rain = 0
KEA1 131740Z 24006KT 05/M06 A3031 RMK A01 T00521058  RH  045%=      5-min Rain = 0
KEA1 131741Z 27006KT 05/M06 A3031 RMK A01 T00521059  RH  045%=      5-min Rain = 0
KEA1 131742Z 29005KT 05/M06 A3031 RMK A01 T00501063  RH  044%=      5-min Rain = 0
KEA1 131743Z 30005KT 05/M07 A3031 RMK A01 T00491065  RH  043%=      5-min Rain = 0
KEA1 131744Z 29004KT 05/M07 A3031 RMK A01 T00481065  RH  044%=      5-min Rain = 0
KEA1 131745Z 28004KT 05/M06 A3031 RMK A01 T00491064  RH  044%=      5-min Rain = 0
KEA1 131746Z 28004KT 05/M06 A3031 RMK A01 T00491064  RH  044%=      5-min Rain = 0
KEA1 131747Z 29005KT 05/M06 A3031 RMK A01 T00491064  RH  044%=      5-min Rain = 0
KEA1 131748Z 28004KT 05/M06 A3031 RMK A01 T00511063  RH  043%=      5-min Rain = 0
KEA1 131749Z 25007KT 05/M06 A303 RMK A01 T00541059  RH  044%=      5-min Rain = 0
KEA1 131750Z 25006KT 06/M05 A303 RMK A01 T00561054  RH  045%=      5-min Rain = 0
KEA1 131751Z 25004KT 06/M05 A303 RMK A01 T00571054  RH  044%=      5-min Rain = 0
KEA1 131752Z 23006KT 06/M05 A303 RMK A01 T00601053  RH  044%=      5-min Rain = 0
KEA1 131753Z 24006KT 06/M05 A303 RMK A01 T00621051  RH  044%=      5-min Rain = 0
KEA1 131754Z 25007KT 06/M05 A303 RMK A01 T00631051  RH  044%=      5-min Rain = 0
KEA1 131755Z 23007KT 06/M05 A303 RMK A01 T00641051  RH  044%=      5-min Rain = 0
KEA1 131756Z 23006KT 06/M05 A303 RMK A01 T00631051  RH  044%=      5-min Rain = 0
KEA1 131757Z 23008KT 06/M05 A303 RMK A01 T00621050  RH  045%=      5-min Rain = 0
KEA1 131758Z 25006KT 06/M05 A303 RMK A01 T00611051  RH  044%=      5-min Rain = 0
KEA1 131759Z 25005KT 06/M05 A303 RMK A01 T00601052  RH  044%=      5-min Rain = 0
KEA1 131800Z 26004KT 06/M05 A303 RMK A01 T00581053  RH  045%=      5-min Rain = 0
KEA1 131801Z 26006KT 06/M05 A3029 RMK A01 T00581053  RH  045%=      5-min Rain = 0
KEA1 131802Z 23009KT 06/M05 A3029 RMK A01 T00641048  RH  045%=      5-min Rain = 0
KEA1 131803Z 25009KT 07/M05 A3029 RMK A01 T00661049  RH  044%=      5-min Rain = 0
KEA1 131804Z 23006KT 07/M05 A3029 RMK A01 T00661051  RH  043%=      5-min Rain = 0
KEA1 131805Z 24006KT 06/M05 A3029 RMK A01 T00641052  RH  043%=      5-min Rain = 0
KEA1 131806Z 24007KT 06/M05 A3029 RMK A01 T00631051  RH  044%=      5-min Rain = 0
KEA1 131807Z 23006KT 06/M05 A3029 RMK A01 T00641051  RH  043%=      5-min Rain = 0
KEA1 131808Z 26006KT 06/M05 A3029 RMK A01 T00641051  RH  043%=      5-min Rain = 0
KEA1 131809Z 25006KT 07/M05 A3029 RMK A01 T00661052  RH  043%=      5-min Rain = 0
KEA1 131810Z 25005KT 07/M05 A3029 RMK A01 T00651053  RH  043%=      5-min Rain = 0
KEA1 131811Z 25004KT 07/M05 A3029 RMK A01 T00651051  RH  043%=      5-min Rain = 0
KEA1 131812Z 21005KT 07/M05 A3029 RMK A01 T00681050  RH  043%=      5-min Rain = 0
KEA1 131813Z 25007KT 07/M05 A3029 RMK A01 T00711050  RH  042%=      5-min Rain = 0
KEA1 131814Z 26005KT 07/M05 A3029 RMK A01 T00721051  RH  041%=      5-min Rain = 0
KEA1 131815Z 22006KT 07/M05 A3029 RMK A01 T00701052  RH  042%=      5-min Rain = 0
KEA1 131816Z 22004KT 07/M05 A3029 RMK A01 T00721050  RH  042%=      5-min Rain = 0
KEA1 131817Z 22006KT 08/M05 A3029 RMK A01 T00761048  RH  041%=      5-min Rain = 0
KEA1 131818Z 21004KT 08/M05 A3028 RMK A01 T00761050  RH  040%=      5-min Rain = 0
KEA1 131819Z 23006KT 08/M05 A3029 RMK A01 T00761050  RH  041%=      5-min Rain = 0
KEA1 131820Z 24007KT 08/M05 A3029 RMK A01 T00771050  RH  040%=      5-min Rain = 0
KEA1 131821Z 25006KT 08/M05 A3029 RMK A01 T00751051  RH  040%=      5-min Rain = 0
KEA1 131822Z 25006KT 07/M05 A3029 RMK A01 T00741051  RH  041%=      5-min Rain = 0
KEA1 131823Z 22007KT 08/M05 A3029 RMK A01 T00761050  RH  041%=      5-min Rain = 0
KEA1 131824Z 24005KT 08/M05 A3029 RMK A01 T00801049  RH  039%=      5-min Rain = 0
KEA1 131825Z 25004KT 08/M05 A3029 RMK A01 T00791052  RH  039%=      5-min Rain = 0
KEA1 131826Z 24007KT 08/M05 A3029 RMK A01 T00821048  RH  039%=      5-min Rain = 0
KEA1 131827Z 25007KT 08/M05 A3029 RMK A01 T00841049  RH  039%=      5-min Rain = 0
KEA1 131828Z 26009KT 08/M05 A3029 RMK A01 T00831051  RH  038%=      5-min Rain = 0
KEA1 131829Z 26008KT 08/M05 A3029 RMK A01 T00801052  RH  039%=      5-min Rain = 0
KEA1 131830Z 26006KT 08/M05 A3029 RMK A01 T00791051  RH  039%=      5-min Rain = 0
KEA1 131831Z 24008KT 08/M05 A3029 RMK A01 T00781052  RH  039%=      5-min Rain = 0
KEA1 131832Z 23010KT 08/M05 A3028 RMK A01 T00811049  RH  039%=      5-min Rain = 0
KEA1 131833Z 24009KT 08/M05 A3029 RMK A01 T00841050  RH  038%=      5-min Rain = 0
KEA1 131834Z 25007KT 08/M05 A3029 RMK A01 T00811053  RH  038%=      5-min Rain = 0
KEA1 131835Z 26009KT 08/M05 A3028 RMK A01 T00791053  RH  039%=      5-min Rain = 0
KEA1 131836Z 26009KT 08/M05 A3028 RMK A01 T00791053  RH  039%=      5-min Rain = 0
KEA1 131837Z 25007KT 08/M05 A3028 RMK A01 T00801053  RH  039%=      5-min Rain = 0
KEA1 131838Z 24008KT 08/M05 A3028 RMK A01 T00811052  RH  038%=      5-min Rain = 0
KEA1 131839Z 24007KT 08/M05 A3028 RMK A01 T00811053  RH  038%=      5-min Rain = 0
KEA1 131840Z 24009KT 08/M05 A3028 RMK A01 T00831051  RH  038%=      5-min Rain = 0
KEA1 131841Z 24008KT 08/M05 A3028 RMK A01 T00831052  RH  038%=      5-min Rain = 0
KEA1 131842Z 24008KT 08/M05 A3028 RMK A01 T00831052  RH  038%=      5-min Rain = 0
KEA1 131843Z 24008KT 08/M05 A3028 RMK A01 T00831052  RH  038%=      5-min Rain = 0
KEA1 131844Z 25007KT 08/M05 A3028 RMK A01 T00821054  RH  038%=      5-min Rain = 0
KEA1 131845Z 25006KT 08/M05 A3028 RMK A01 T00821053  RH  038%=      5-min Rain = 0
KEA1 131846Z 24009KT 08/M05 A3028 RMK A01 T00841051  RH  038%=      5-min Rain = 0
KEA1 131847Z 24008KT 09/M05 A3028 RMK A01 T00861050  RH  038%=      5-min Rain = 0
KEA1 131848Z 24007KT 09/M05 A3028 RMK A01 T00861052  RH  037%=      5-min Rain = 0
KEA1 131849Z 23010KT 09/M05 A3027 RMK A01 T00861051  RH  038%=      5-min Rain = 0
KEA1 131850Z 23008KT 09/M05 A3027 RMK A01 T00871050  RH  037%=      5-min Rain = 0
KEA1 131851Z 24007KT 09/M05 A3028 RMK A01 T00891052  RH  036%=      5-min Rain = 0
KEA1 131852Z 23007KT 09/M05 A3028 RMK A01 T00891052  RH  037%=      5-min Rain = 0
KEA1 131853Z 20006KT 09/M05 A3028 RMK A01 T00911050  RH  036%=      5-min Rain = 0
KEA1 131854Z 21007KT 09/M05 A3028 RMK A01 T00931048  RH  037%=      5-min Rain = 0
KEA1 131855Z 23006KT 09/M04 A3028 RMK A01 T00931044  RH  038%=      5-min Rain = 0
KEA1 131856Z 20007KT 10/M05 A3028 RMK A01 T00961046  RH  036%=      5-min Rain = 0
KEA1 131857Z 20007KT 10/M05 A3028 RMK A01 T00971050  RH  035%=      5-min Rain = 0
KEA1 131858Z 22008G13KT 10/M05 A3028 RMK A01 T00961051  RH  035%=      5-min Rain = 0
KEA1 131859Z 24008KT 10/M05 A3028 RMK A01 T00981049  RH  035%=      5-min Rain = 0
KEA1 131900Z 23006KT 10/M05 A3028 RMK A01 T00991049  RH  035%=      5-min Rain = 0
KEA1 131901Z 21004G9KT 10/M05 A3028 RMK A01 T00951052  RH  035%=      5-min Rain = 0
KEA1 131902Z 19009KT 10/M05 A3027 RMK A01 T00971050  RH  035%=      5-min Rain = 0
KEA1 131903Z 18008KT 10/M05 A3027 RMK A01 T01041049  RH  034%=      5-min Rain = 0
KEA1 131904Z 18009KT 11/M05 A3027 RMK A01 T01091049  RH  033%=      5-min Rain = 0
KEA1 131905Z 22008KT 11/M05 A3027 RMK A01 T01081048  RH  033%=      5-min Rain = 0
KEA1 131906Z 23008KT 11/M05 A3027 RMK A01 T01061045  RH  034%=      5-min Rain = 0
KEA1 131907Z 23006KT 11/M05 A3027 RMK A01 T01061047  RH  034%=      5-min Rain = 0
KEA1 131908Z 23007KT 11/M05 A3027 RMK A01 T01071048  RH  033%=      5-min Rain = 0
KEA1 131909Z 22007KT 11/M05 A3027 RMK A01 T01061046  RH  034%=      5-min Rain = 0
KEA1 131910Z 20006KT 11/M05 A3027 RMK A01 T01081047  RH  033%=      5-min Rain = 0
KEA1 131911Z 18007KT 11/M05 A3027 RMK A01 T01091051  RH  032%=      5-min Rain = 0
KEA1 131912Z 19009KT 11/M05 A3027 RMK A01 T01091052  RH  032%=      5-min Rain = 0
KEA1 131913Z 17007KT 11/M05 A3027 RMK A01 T01081053  RH  032%=      5-min Rain = 0
KEA1 131914Z 18005KT 11/M05 A3027 RMK A01 T01051054  RH  032%=      5-min Rain = 0
KEA1 131915Z 21010KT 11/M05 A3027 RMK A01 T01051053  RH  032%=      5-min Rain = 0
KEA1 131916Z 20010KT 11/M05 A3026 RMK A01 T01051053  RH  032%=      5-min Rain = 0
KEA1 131917Z 21007KT 10/M05 A3026 RMK A01 T01041053  RH  033%=      5-min Rain = 0
KEA1 131918Z 20005KT 10/M05 A3026 RMK A01 T01041053  RH  033%=      5-min Rain = 0
KEA1 131919Z 19008KT 10/M05 A3026 RMK A01 T01041052  RH  033%=      5-min Rain = 0
KEA1 131920Z 19008KT 11/M05 A3026 RMK A01 T01081051  RH  032%=      5-min Rain = 0
KEA1 131921Z 19007KT 11/M05 A3026 RMK A01 T01101051  RH  032%=      5-min Rain = 0
KEA1 131922Z 20009KT 11/M05 A3026 RMK A01 T01121050  RH  032%=      5-min Rain = 0
KEA1 131923Z 20008KT 11/M05 A3026 RMK A01 T01131050  RH  031%=      5-min Rain = 0
KEA1 131924Z 20004KT 11/M05 A3026 RMK A01 T01101052  RH  032%=      5-min Rain = 0
KEA1 131925Z 20006KT 11/M05 A3026 RMK A01 T01091052  RH  032%=      5-min Rain = 0
KEA1 131926Z 19007KT 11/M05 A3026 RMK A01 T01121050  RH  032%=      5-min Rain = 0
KEA1 131927Z 19006KT 12/M05 A3026 RMK A01 T01171048  RH  031%=      5-min Rain = 0
KEA1 131928Z 18008KT 12/M05 A3025 RMK A01 T01181049  RH  031%=      5-min Rain = 0
KEA1 131929Z 18008KT 12/M05 A3025 RMK A01 T01211048  RH  030%=      5-min Rain = 0
KEA1 131930Z 19008KT 12/M05 A3025 RMK A01 T01221050  RH  030%=      5-min Rain = 0
KEA1 131931Z 20010KT 12/M05 A3025 RMK A01 T01191050  RH  030%=      5-min Rain = 0
KEA1 131932Z 21009KT 12/M05 A3025 RMK A01 T01171047  RH  031%=      5-min Rain = 0
KEA1 131933Z 20006KT 12/M04 A3025 RMK A01 T01171044  RH  032%=      5-min Rain = 0
KEA1 131934Z 19008KT 12/M04 A3025 RMK A01 T01181044  RH  032%=      5-min Rain = 0
KEA1 131935Z 17008KT 12/M05 A3025 RMK A01 T01201046  RH  031%=      5-min Rain = 0
KEA1 131936Z 18006KT 12/M05 A3025 RMK A01 T01221045  RH  031%=      5-min Rain = 0
KEA1 131937Z 19005KT 12/M05 A3025 RMK A01 T01241045  RH  030%=      5-min Rain = 0
KEA1 131938Z 21007KT 13/M04 A3025 RMK A01 T01291044  RH  030%=      5-min Rain = 0
KEA1 131939Z 21007KT 13/M04 A3025 RMK A01 T01331041  RH  030%=      5-min Rain = 0
KEA1 131940Z 21009KT 13/M05 A3025 RMK A01 T01321047  RH  028%=      5-min Rain = 0
KEA1 131941Z 18009KT 13/M05 A3025 RMK A01 T01291049  RH  029%=      5-min Rain = 0
KEA1 131942Z 18007KT 13/M05 A3024 RMK A01 T01281050  RH  028%=      5-min Rain = 0
KEA1 131943Z 18010KT 13/M05 A3024 RMK A01 T01281050  RH  028%=      5-min Rain = 0
KEA1 131944Z 19010KT 13/M05 A3024 RMK A01 T01311050  RH  028%=      5-min Rain = 0
KEA1 131945Z 18009KT 13/M05 A3024 RMK A01 T01311051  RH  028%=      5-min Rain = 0
KEA1 131946Z 20011KT 13/M05 A3024 RMK A01 T01341050  RH  028%=      5-min Rain = 0
KEA1 131947Z 20009KT 13/M05 A3024 RMK A01 T01341051  RH  027%=      5-min Rain = 0
KEA1 131948Z 20010KT 13/M05 A3024 RMK A01 T01321053  RH  027%=      5-min Rain = 0
KEA1 131949Z 19009KT 13/M05 A3024 RMK A01 T01301053  RH  028%=      5-min Rain = 0
KEA1 131950Z 21008KT 13/M05 A3024 RMK A01 T01331051  RH  028%=      5-min Rain = 0
KEA1 131951Z 19010KT 13/M05 A3024 RMK A01 T01341052  RH  027%=      5-min Rain = 0
KEA1 131952Z 18011KT 13/M05 A3024 RMK A01 T01341053  RH  027%=      5-min Rain = 0
KEA1 131953Z 19010KT 13/M05 A3024 RMK A01 T01341053  RH  027%=      5-min Rain = 0
KEA1 131954Z 19012KT 13/M05 A3024 RMK A01 T01341053  RH  027%=      5-min Rain = 0
KEA1 131955Z 19010KT 13/M05 A3024 RMK A01 T01321054  RH  027%=      5-min Rain = 0
KEA1 131956Z 20010KT 13/M05 A3024 RMK A01 T01321053  RH  027%=      5-min Rain = 0
KEA1 131957Z 19012KT 13/M05 A3024 RMK A01 T01311053  RH  027%=      5-min Rain = 0
KEA1 131958Z 19010KT 13/M05 A3024 RMK A01 T01321053  RH  027%=      5-min Rain = 0
KEA1 131959Z 19008KT 13/M05 A3024 RMK A01 T01301054  RH  027%=      5-min Rain = 0
KEA1 132000Z 18009KT 13/M05 A3024 RMK A01 T01311052  RH  028%=      5-min Rain = 0
KEA1 132001Z 17008KT 14/M05 A3024 RMK A01 T01351051  RH  027%=      5-min Rain = 0
KEA1 132002Z 18008G14KT 14/M05 A3024 RMK A01 T01411049  RH  027%=      5-min Rain = 0
KEA1 132003Z 21009KT 14/M05 A3023 RMK A01 T01431050  RH  026%=      5-min Rain = 0
KEA1 132004Z 21007KT 14/M05 A3024 RMK A01 T01411051  RH  026%=      5-min Rain = 0
KEA1 132005Z 22007KT 14/M05 A3024 RMK A01 T01401052  RH  026%=      5-min Rain = 0
KEA1 132006Z 21007KT 14/M05 A3023 RMK A01 T01351053  RH  027%=      5-min Rain = 0
KEA1 132007Z 20012KT 14/M05 A3023 RMK A01 T01391048  RH  027%=      5-min Rain = 0
KEA1 132008Z 20011KT 14/M05 A3023 RMK A01 T01411049  RH  027%=      5-min Rain = 0
KEA1 132009Z 20009KT 14/M05 A3023 RMK A01 T01381050  RH  027%=      5-min Rain = 0
KEA1 132010Z 21008KT 14/M05 A3023 RMK A01 T01361050  RH  027%=      5-min Rain = 0
KEA1 132011Z 21008KT 14/M05 A3023 RMK A01 T01391047  RH  027%=      5-min Rain = 0
KEA1 132012Z 20006KT 14/M05 A3023 RMK A01 T01411048  RH  027%=      5-min Rain = 0
KEA1 132013Z 18008KT 15/M05 A3023 RMK A01 T01451045  RH  027%=      5-min Rain = 0
KEA1 132014Z 18006KT 15/M05 A3023 RMK A01 T01471047  RH  026%=      5-min Rain = 0
KEA1 132015Z 19009KT 15/M05 A3023 RMK A01 T01451048  RH  026%=      5-min Rain = 0
KEA1 132016Z 18011KT 15/M05 A3023 RMK A01 T01461046  RH  026%=      5-min Rain = 0
KEA1 132017Z 18008G13KT 15/M05 A3023 RMK A01 T01481046  RH  026%=      5-min Rain = 0
KEA1 132018Z 17008G13KT 14/M05 A3023 RMK A01 T01441047  RH  026%=      5-min Rain = 0
KEA1 132019Z 16006KT 15/M05 A3023 RMK A01 T01461045  RH  026%=      5-min Rain = 0
KEA1 132020Z 18006KT 15/M05 A3023 RMK A01 T01481045  RH  026%=      5-min Rain = 0
KEA1 132021Z 18008KT 15/M04 A3023 RMK A01 T01511042  RH  026%=      5-min Rain = 0
KEA1 132022Z 21011KT 16/M04 A3022 RMK A01 T01551043  RH  025%=      5-min Rain = 0
KEA1 132023Z 19010KT 16/M05 A3022 RMK A01 T01561045  RH  025%=      5-min Rain = 0
KEA1 132024Z 18008KT 15/M05 A3022 RMK A01 T01531045  RH  025%=      5-min Rain = 0
KEA1 132025Z 18008KT 16/M04 A3022 RMK A01 T01561042  RH  025%=      5-min Rain = 0
KEA1 132026Z 20006KT 16/M04 A3022 RMK A01 T01591042  RH  025%=      5-min Rain = 0
KEA1 132027Z 21006KT 16/M04 A3022 RMK A01 T01591043  RH  025%=      5-min Rain = 0
KEA1 132028Z 19006KT 16/M04 A3022 RMK A01 T01551044  RH  025%=      5-min Rain = 0
KEA1 132029Z 18011KT 16/M04 A3022 RMK A01 T01571042  RH  025%=      5-min Rain = 0
KEA1 132030Z 20009KT 16/M04 A3022 RMK A01 T01581043  RH  025%=      5-min Rain = 0
KEA1 132031Z 21010KT 16/M04 A3022 RMK A01 T01581044  RH  025%=      5-min Rain = 0
KEA1 132032Z 21010KT 16/M04 A3022 RMK A01 T01601042  RH  025%=      5-min Rain = 0
KEA1 132033Z 21009KT 16/M04 A3022 RMK A01 T01611043  RH  024%=      5-min Rain = 0
KEA1 132034Z 19006KT 16/M04 A3022 RMK A01 T01601042  RH  025%=      5-min Rain = 0
KEA1 132035Z 17007KT 16/M04 A3022 RMK A01 T01631040  RH  024%=      5-min Rain = 0
KEA1 132036Z 17005KT 16/M04 A3022 RMK A01 T01641042  RH  024%=      5-min Rain = 0
KEA1 132037Z 18008KT 16/M04 A3022 RMK A01 T01621042  RH  024%=      5-min Rain = 0
KEA1 132038Z 17010KT 16/M04 A3022 RMK A01 T01641043  RH  024%=      5-min Rain = 0
KEA1 132039Z 17008KT 16/M05 A3022 RMK A01 T01611045  RH  024%=      5-min Rain = 0
KEA1 132040Z 17006KT 16/M04 A3022 RMK A01 T01611043  RH  024%=      5-min Rain = 0
KEA1 132041Z 19010KT 17/M04 A3022 RMK A01 T01651041  RH  024%=      5-min Rain = 0
KEA1 132042Z 21009KT 17/M04 A3022 RMK A01 T01681042  RH  024%=      5-min Rain = 0
KEA1 132043Z 19010KT 17/M04 A3021 RMK A01 T01671043  RH  023%=      5-min Rain = 0
KEA1 132044Z 17008KT 17/M04 A3022 RMK A01 T01661043  RH  024%=      5-min Rain = 0
KEA1 132045Z 18010KT 17/M04 A3021 RMK A01 T01691042  RH  023%=      5-min Rain = 0
KEA1 132046Z 19009KT 17/M04 A3022 RMK A01 T01701042  RH  023%=      5-min Rain = 0
KEA1 132047Z 17009KT 17/M04 A3022 RMK A01 T01681043  RH  023%=      5-min Rain = 0
KEA1 132048Z 19009KT 17/M04 A3022 RMK A01 T01691041  RH  023%=      5-min Rain = 0
KEA1 132049Z 18012KT 17/M04 A3021 RMK A01 T01691041  RH  024%=      5-min Rain = 0
KEA1 132050Z 17010KT 17/M04 A3022 RMK A01 T01691040  RH  024%=      5-min Rain = 0
KEA1 132051Z 17008KT 17/M04 A3022 RMK A01 T01681041  RH  024%=      5-min Rain = 0
KEA1 132052Z 19008KT 17/M04 A3022 RMK A01 T01661040  RH  024%=      5-min Rain = 0
KEA1 132053Z 18011KT 17/M04 A3021 RMK A01 T01691040  RH  024%=      5-min Rain = 0
KEA1 132054Z 20011KT 17/M04 A3022 RMK A01 T01741040  RH  023%=      5-min Rain = 0
KEA1 132055Z 20011KT 17/M04 A3021 RMK A01 T01721044  RH  023%=      5-min Rain = 0
KEA1 132056Z 19008KT 17/M04 A3021 RMK A01 T01681043  RH  023%=      5-min Rain = 0
KEA1 132057Z 20009KT 17/M04 A3021 RMK A01 T01701040  RH  024%=      5-min Rain = 0
KEA1 132058Z 19007KT 17/M04 A3022 RMK A01 T01711041  RH  023%=      5-min Rain = 0
KEA1 132059Z 19008G13KT 17/M04 A3022 RMK A01 T01701040  RH  023%=      5-min Rain = 0
KEA1 132100Z 18012KT 17/M04 A3022 RMK A01 T01711039  RH  024%=      5-min Rain = 0
KEA1 132101Z 19012KT 17/M04 A3022 RMK A01 T01711040  RH  023%=      5-min Rain = 0
KEA1 132102Z 19008KT 17/M04 A3022 RMK A01 T01681041  RH  024%=      5-min Rain = 0
KEA1 132103Z 18007KT 17/M04 A3022 RMK A01 T01651040  RH  024%=      5-min Rain = 0
KEA1 132104Z 18006KT 17/M04 A3022 RMK A01 T01681037  RH  024%=      5-min Rain = 0
KEA1 132105Z 17009KT 17/M04 A3022 RMK A01 T01711037  RH  024%=      5-min Rain = 0
KEA1 132106Z 16011KT 17/M04 A3022 RMK A01 T01721037  RH  024%=      5-min Rain = 0
KEA1 132107Z 16008KT 17/M04 A3022 RMK A01 T01711038  RH  024%=      5-min Rain = 0
KEA1 132108Z 17008KT 17/M04 A3022 RMK A01 T01721036  RH  024%=      5-min Rain = 0
KEA1 132109Z 15009KT 17/M04 A3021 RMK A01 T01741037  RH  023%=      5-min Rain = 0
KEA1 132110Z 15008KT 17/M04 A3021 RMK A01 T01721038  RH  023%=      5-min Rain = 0
KEA1 132111Z 16010KT 17/M04 A3021 RMK A01 T01711038  RH  024%=      5-min Rain = 0
KEA1 132112Z 18010KT 17/M04 A3021 RMK A01 T01721036  RH  024%=      5-min Rain = 0
KEA1 132113Z 19011KT 17/M04 A3021 RMK A01 T01741035  RH  024%=      5-min Rain = 0
KEA1 132114Z 19009KT 18/M04 A3021 RMK A01 T01761035  RH  024%=      5-min Rain = 0
KEA1 132115Z 18008KT 17/M04 A3021 RMK A01 T01741036  RH  024%=      5-min Rain = 0
KEA1 132116Z 19007KT 17/M04 A3021 RMK A01 T01721035  RH  024%=      5-min Rain = 0
KEA1 132117Z 19008KT 17/M04 A3021 RMK A01 T01711035  RH  024%=      5-min Rain = 0
KEA1 132118Z 17010KT 17/M03 A3021 RMK A01 T01711034  RH  024%=      5-min Rain = 0
KEA1 132119Z 19010KT 17/M03 A3021 RMK A01 T01721034  RH  024%=      5-min Rain = 0
KEA1 132120Z 20008KT 17/M04 A3021 RMK A01 T01741035  RH  024%=      5-min Rain = 0
KEA1 132121Z 18007KT 17/M04 A3021 RMK A01 T01741035  RH  024%=      5-min Rain = 0
KEA1 132122Z 18007KT 18/M03 A3021 RMK A01 T01761033  RH  024%=      5-min Rain = 0
KEA1 132123Z 15007KT 18/M03 A3021 RMK A01 T01791032  RH  024%=      5-min Rain = 0
KEA1 132124Z 17010KT 18/M03 A3021 RMK A01 T01791032  RH  024%=      5-min Rain = 0
KEA1 132125Z 16010KT 18/M03 A3021 RMK A01 T01791033  RH  023%=      5-min Rain = 0
KEA1 132126Z 15008KT 18/M03 A3021 RMK A01 T01781033  RH  024%=      5-min Rain = 0
KEA1 132127Z 15007KT 18/M03 A3021 RMK A01 T01771032  RH  024%=      5-min Rain = 0
KEA1 132128Z 17008KT 18/M03 A3021 RMK A01 T01781032  RH  024%=      5-min Rain = 0
KEA1 132129Z 19008KT 18/M03 A3021 RMK A01 T01781032  RH  024%=      5-min Rain = 0
KEA1 132130Z 18007KT 18/M03 A3021 RMK A01 T01771033  RH  024%=      5-min Rain = 0
KEA1 132131Z 17005KT 17/M03 A3021 RMK A01 T01741033  RH  024%=      5-min Rain = 0
KEA1 132132Z 17009KT 18/M03 A3021 RMK A01 T01771031  RH  024%=      5-min Rain = 0
KEA1 132133Z 15007KT 18/M03 A3021 RMK A01 T01801031  RH  024%=      5-min Rain = 0
KEA1 132134Z 14008KT 18/M03 A3021 RMK A01 T01781031  RH  024%=      5-min Rain = 0
KEA1 132135Z 15011KT 18/M03 A3021 RMK A01 T01781030  RH  024%=      5-min Rain = 0
KEA1 132136Z 16008KT 18/M03 A3022 RMK A01 T01781030  RH  024%=      5-min Rain = 0
KEA1 132137Z 16009KT 18/M03 A3022 RMK A01 T01791029  RH  024%=      5-min Rain = 0
KEA1 132138Z 19009KT 18/M03 A3022 RMK A01 T01811030  RH  024%=      5-min Rain = 0
KEA1 132139Z 18009KT 18/M03 A3022 RMK A01 T01821031  RH  023%=      5-min Rain = 0
KEA1 132140Z 17010KT 18/M03 A3022 RMK A01 T01811031  RH  023%=      5-min Rain = 0
KEA1 132141Z 16010KT 18/M03 A3022 RMK A01 T01791031  RH  024%=      5-min Rain = 0
KEA1 132142Z 16011KT 18/M03 A3022 RMK A01 T01791030  RH  024%=      5-min Rain = 0
KEA1 132143Z 17010KT 18/M03 A3022 RMK A01 T01781031  RH  024%=      5-min Rain = 0
KEA1 132144Z 18010KT 18/M03 A3022 RMK A01 T01771031  RH  024%=      5-min Rain = 0
KEA1 132145Z 17010KT 18/M03 A3022 RMK A01 T01761031  RH  024%=      5-min Rain = 0
KEA1 132146Z 17011KT 18/M03 A3022 RMK A01 T01771031  RH  024%=      5-min Rain = 0
KEA1 132147Z 18013KT 18/M03 A3022 RMK A01 T01801031  RH  024%=      5-min Rain = 0
KEA1 132148Z 19009KT 18/M03 A3022 RMK A01 T01781033  RH  024%=      5-min Rain = 0
KEA1 132149Z 18009KT 18/M03 A3022 RMK A01 T01761033  RH  024%=      5-min Rain = 0
KEA1 132150Z 18010KT 18/M03 A3022 RMK A01 T01801030  RH  024%=      5-min Rain = 0
KEA1 132151Z 16010KT 18/M03 A3022 RMK A01 T01831030  RH  023%=      5-min Rain = 0
KEA1 132152Z 16010KT 18/M03 A3022 RMK A01 T01831030  RH  023%=      5-min Rain = 0
KEA1 132153Z 16010KT 18/M03 A3022 RMK A01 T01821031  RH  023%=      5-min Rain = 0
KEA1 132154Z 16012KT 18/M03 A3022 RMK A01 T01821032  RH  023%=      5-min Rain = 0
KEA1 132155Z 17011KT 18/M03 A3022 RMK A01 T01821032  RH  023%=      5-min Rain = 0
KEA1 132156Z 17010KT 18/M03 A3022 RMK A01 T01821032  RH  023%=      5-min Rain = 0
KEA1 132157Z 18010KT 18/M03 A3022 RMK A01 T01811031  RH  023%=      5-min Rain = 0
KEA1 132158Z 18010KT 18/M03 A3022 RMK A01 T01831033  RH  023%=      5-min Rain = 0
KEA1 132159Z 18012KT 18/M03 A3022 RMK A01 T01821034  RH  023%=      5-min Rain = 0
KEA1 132200Z 18010KT 18/M03 A3022 RMK A01 T01811033  RH  023%=      5-min Rain = 0
KEA1 132201Z 17011KT 18/M03 A3022 RMK A01 T01801032  RH  023%=      5-min Rain = 0
KEA1 132202Z 17013KT 18/M03 A3022 RMK A01 T01831031  RH  023%=      5-min Rain = 0
KEA1 132203Z 16010KT 19/M03 A3022 RMK A01 T01851031  RH  023%=      5-min Rain = 0
KEA1 132204Z 15012KT 19/M03 A3022 RMK A01 T01861031  RH  023%=      5-min Rain = 0
KEA1 132205Z 16012KT 19/M03 A3022 RMK A01 T01861032  RH  023%=      5-min Rain = 0
KEA1 132206Z 17015KT 19/M03 A3021 RMK A01 T01861031  RH  023%=      5-min Rain = 0
KEA1 132207Z 19015KT 18/M03 A3021 RMK A01 T01841033  RH  023%=      5-min Rain = 0
KEA1 132208Z 19013KT 18/M03 A3021 RMK A01 T01811033  RH  023%=      5-min Rain = 0
KEA1 132209Z 17012KT 18/M03 A3021 RMK A01 T01801033  RH  023%=      5-min Rain = 0
KEA1 132210Z 17013KT 18/M03 A3021 RMK A01 T01811033  RH  023%=      5-min Rain = 0
KEA1 132211Z 16014KT 18/M03 A3021 RMK A01 T01801033  RH  023%=      5-min Rain = 0
KEA1 132212Z 17015KT 18/M03 A3021 RMK A01 T01801033  RH  023%=      5-min Rain = 0
KEA1 132213Z 17013KT 18/M03 A3022 RMK A01 T01801032  RH  023%=      5-min Rain = 0
KEA1 132214Z 16015KT 18/M03 A3022 RMK A01 T01801032  RH  023%=      5-min Rain = 0
KEA1 132215Z 18012KT 18/M03 A3022 RMK A01 T01801032  RH  023%=      5-min Rain = 0
KEA1 132216Z 18015KT 18/M03 A3022 RMK A01 T01821032  RH  023%=      5-min Rain = 0
KEA1 132217Z 18013KT 18/M03 A3022 RMK A01 T01801034  RH  023%=      5-min Rain = 0
KEA1 132218Z 17012KT 18/M03 A3022 RMK A01 T01781033  RH  024%=      5-min Rain = 0
KEA1 132219Z 18010KT 18/M03 A3022 RMK A01 T01781033  RH  023%=      5-min Rain = 0
KEA1 132220Z 19011KT 18/M03 A3022 RMK A01 T01791033  RH  023%=      5-min Rain = 0
KEA1 132221Z 18011KT 18/M03 A3022 RMK A01 T01801033  RH  023%=      5-min Rain = 0
KEA1 132222Z 17010KT 18/M03 A3022 RMK A01 T01801032  RH  023%=      5-min Rain = 0
KEA1 132223Z 17013KT 18/M03 A3022 RMK A01 T01811032  RH  023%=      5-min Rain = 0
KEA1 132224Z 19013KT 18/M03 A3022 RMK A01 T01791032  RH  023%=      5-min Rain = 0
KEA1 132225Z 18010KT 18/M03 A3022 RMK A01 T01771033  RH  024%=      5-min Rain = 0
KEA1 132226Z 17011KT 18/M03 A3022 RMK A01 T01761032  RH  024%=      5-min Rain = 0
KEA1 132227Z 17013KT 18/M03 A3021 RMK A01 T01781030  RH  024%=      5-min Rain = 0
KEA1 132228Z 17012KT 18/M03 A3021 RMK A01 T01781030  RH  024%=      5-min Rain = 0
KEA1 132229Z 17010KT 18/M03 A3021 RMK A01 T01761031  RH  024%=      5-min Rain = 0
KEA1 132230Z 17007KT 18/M03 A3021 RMK A01 T01751031  RH  024%=      5-min Rain = 0
KEA1 132231Z 15008KT 18/M03 A3021 RMK A01 T01781030  RH  024%=      5-min Rain = 0
KEA1 132232Z 16008KT 18/M03 A3021 RMK A01 T01811029  RH  024%=      5-min Rain = 0
KEA1 132233Z 17010KT 18/M03 A3021 RMK A01 T01831029  RH  023%=      5-min Rain = 0
KEA1 132234Z 17012KT 18/M03 A3021 RMK A01 T01831030  RH  023%=      5-min Rain = 0
KEA1 132235Z 16012KT 18/M03 A3021 RMK A01 T01821030  RH  023%=      5-min Rain = 0
KEA1 132236Z 16012KT 18/M03 A3021 RMK A01 T01811032  RH  023%=      5-min Rain = 0
KEA1 132237Z 16011KT 18/M03 A3021 RMK A01 T01791032  RH  024%=      5-min Rain = 0
KEA1 132238Z 16010KT 18/M03 A3021 RMK A01 T01791031  RH  024%=      5-min Rain = 0
KEA1 132239Z 15009KT 18/M03 A3021 RMK A01 T01791032  RH  024%=      5-min Rain = 0
KEA1 132240Z 15009KT 18/M03 A3021 RMK A01 T01781032  RH  024%=      5-min Rain = 0
KEA1 132241Z 17013KT 18/M03 A3021 RMK A01 T01781031  RH  024%=      5-min Rain = 0
KEA1 132242Z 18013KT 18/M03 A3021 RMK A01 T01791032  RH  024%=      5-min Rain = 0
KEA1 132243Z 18012KT 18/M03 A3021 RMK A01 T01771033  RH  024%=      5-min Rain = 0
KEA1 132244Z 18010KT 18/M03 A3021 RMK A01 T01771032  RH  024%=      5-min Rain = 0
KEA1 132245Z 18012KT 18/M03 A3021 RMK A01 T01791031  RH  024%=      5-min Rain = 0
KEA1 132246Z 16013G18KT 18/M03 A3021 RMK A01 T01811031  RH  023%=      5-min Rain = 0
KEA1 132247Z 17013KT 18/M03 A3021 RMK A01 T01801032  RH  023%=      5-min Rain = 0
KEA1 132248Z 17010KT 18/M03 A3021 RMK A01 T01771032  RH  024%=      5-min Rain = 0
KEA1 132249Z 16013KT 18/M03 A3021 RMK A01 T01781032  RH  024%=      5-min Rain = 0
KEA1 132250Z 18011KT 18/M03 A3021 RMK A01 T01791032  RH  024%=      5-min Rain = 0
KEA1 132251Z 17011KT 18/M03 A3021 RMK A01 T01771032  RH  024%=      5-min Rain = 0
KEA1 132252Z 17010KT 18/M03 A3021 RMK A01 T01771032  RH  024%=      5-min Rain = 0
KEA1 132253Z 17009KT 18/M03 A3021 RMK A01 T01761032  RH  024%=      5-min Rain = 0
KEA1 132254Z 17012KT 18/M03 A3021 RMK A01 T01781031  RH  024%=      5-min Rain = 0
KEA1 132255Z 16011KT 18/M03 A3021 RMK A01 T01771032  RH  024%=      5-min Rain = 0
KEA1 132256Z 16011KT 18/M03 A3021 RMK A01 T01761032  RH  024%=      5-min Rain = 0
KEA1 132257Z 17010KT 18/M03 A3021 RMK A01 T01751032  RH  024%=      5-min Rain = 0
KEA1 132258Z 16009KT 18/M03 A3021 RMK A01 T01751032  RH  024%=      5-min Rain = 0
KEA1 132259Z 16009KT 18/M03 A3021 RMK A01 T01751032  RH  024%=      5-min Rain = 0
KEA1 132300Z 17011KT 18/M03 A3021 RMK A01 T01761030  RH  024%=      5-min Rain = 0
KEA1 132301Z 15012KT 18/M03 A3021 RMK A01 T01751027  RH  025%=      5-min Rain = 0
KEA1 132302Z 16013KT 17/M03 A3021 RMK A01 T01741026  RH  025%=      5-min Rain = 0
KEA1 132303Z 15013KT 17/M03 A3021 RMK A01 T01731026  RH  026%=      5-min Rain = 0
KEA1 132304Z 15012KT 17/M03 A3021 RMK A01 T01711025  RH  026%=      5-min Rain = 0
KEA1 132305Z 16012KT 17/M03 A3021 RMK A01 T01711025  RH  026%=      5-min Rain = 0
KEA1 132306Z 16011KT 17/M03 A3021 RMK A01 T01701025  RH  026%=      5-min Rain = 0
KEA1 132307Z 15012KT 17/M03 A3021 RMK A01 T01691025  RH  026%=      5-min Rain = 0
KEA1 132308Z 15013KT 17/M03 A3021 RMK A01 T01691025  RH  026%=      5-min Rain = 0
KEA1 132309Z 15012KT 17/M03 A3021 RMK A01 T01681025  RH  027%=      5-min Rain = 0
KEA1 132310Z 16013KT 17/M03 A3021 RMK A01 T01671026  RH  027%=      5-min Rain = 0
KEA1 132311Z 17012KT 17/M03 A3021 RMK A01 T01671025  RH  027%=      5-min Rain = 0
KEA1 132312Z 17014KT 17/M03 A3021 RMK A01 T01671026  RH  027%=      5-min Rain = 0
KEA1 132313Z 16012KT 17/M03 A3021 RMK A01 T01661025  RH  027%=      5-min Rain = 0
KEA1 132314Z 17012KT 17/M03 A3021 RMK A01 T01651026  RH  027%=      5-min Rain = 0
KEA1 132315Z 17011KT 17/M03 A3021 RMK A01 T01651026  RH  027%=      5-min Rain = 0
KEA1 132316Z 17013KT 17/M03 A3021 RMK A01 T01651026  RH  027%=      5-min Rain = 0
KEA1 132317Z 16013KT 16/M03 A3021 RMK A01 T01641026  RH  027%=      5-min Rain = 0
KEA1 132318Z 16013KT 16/M03 A3021 RMK A01 T01631025  RH  027%=      5-min Rain = 0
KEA1 132319Z 16012KT 16/M03 A3021 RMK A01 T01621025  RH  028%=      5-min Rain = 0
KEA1 132320Z 16011KT 16/M03 A3021 RMK A01 T01621025  RH  028%=      5-min Rain = 0
KEA1 132321Z 17008KT 16/M03 A3021 RMK A01 T01611025  RH  028%=      5-min Rain = 0
KEA1 132322Z 17008KT 16/M03 A3021 RMK A01 T01611025  RH  028%=      5-min Rain = 0
KEA1 132323Z 16008KT 16/M03 A3021 RMK A01 T01611025  RH  028%=      5-min Rain = 0
KEA1 132324Z 16008KT 16/M03 A3021 RMK A01 T01611025  RH  028%=      5-min Rain = 0
KEA1 132325Z 17010KT 16/M03 A3021 RMK A01 T01611025  RH  028%=      5-min Rain = 0
KEA1 132326Z 17013KT 16/M02 A3021 RMK A01 T01601024  RH  028%=      5-min Rain = 0
KEA1 132327Z 17013KT 16/M02 A3021 RMK A01 T01601024  RH  028%=      5-min Rain = 0
KEA1 132328Z 17012KT 16/M02 A3021 RMK A01 T01601024  RH  028%=      5-min Rain = 0
KEA1 132329Z 17012KT 16/M02 A3021 RMK A01 T01591024  RH  028%=      5-min Rain = 0
KEA1 132330Z 16012KT 16/M02 A3021 RMK A01 T01591024  RH  028%=      5-min Rain = 0
KEA1 132331Z 16013KT 16/M02 A3021 RMK A01 T01591024  RH  028%=      5-min Rain = 0
KEA1 132332Z 16013KT 16/M02 A3021 RMK A01 T01581024  RH  029%=      5-min Rain = 0
KEA1 132333Z 16012KT 16/M02 A3021 RMK A01 T01581024  RH  029%=      5-min Rain = 0
KEA1 132334Z 15012KT 16/M02 A3021 RMK A01 T01581024  RH  029%=      5-min Rain = 0
KEA1 132335Z 16011KT 16/M02 A3021 RMK A01 T01581024  RH  029%=      5-min Rain = 0
KEA1 132336Z 17012KT 16/M02 A3021 RMK A01 T01591023  RH  029%=      5-min Rain = 0
KEA1 132337Z 16012KT 16/M02 A3021 RMK A01 T01591023  RH  029%=      5-min Rain = 0
KEA1 132338Z 16011KT 16/M02 A3022 RMK A01 T01591023  RH  029%=      5-min Rain = 0
KEA1 132339Z 16011KT 16/M02 A3022 RMK A01 T01591023  RH  029%=      5-min Rain = 0
KEA1 132340Z 17013KT 16/M02 A3022 RMK A01 T01601022  RH  029%=      5-min Rain = 0
KEA1 132341Z 16011KT 16/M02 A3022 RMK A01 T01591021  RH  029%=      5-min Rain = 0
KEA1 132342Z 16010KT 16/M02 A3022 RMK A01 T01591021  RH  029%=      5-min Rain = 0
KEA1 132343Z 16013KT 16/M02 A3022 RMK A01 T01591020  RH  029%=      5-min Rain = 0
KEA1 132344Z 16012KT 16/M02 A3022 RMK A01 T01591019  RH  030%=      5-min Rain = 0
KEA1 132345Z 17011KT 16/M02 A3022 RMK A01 T01581019  RH  030%=      5-min Rain = 0
KEA1 132346Z 17014KT 16/M02 A3022 RMK A01 T01571019  RH  030%=      5-min Rain = 0
KEA1 132347Z 16015KT 16/M02 A3022 RMK A01 T01571018  RH  030%=      5-min Rain = 0
KEA1 132348Z 16013KT 16/M02 A3022 RMK A01 T01561018  RH  030%=      5-min Rain = 0
KEA1 132349Z 16015KT 16/M02 A3022 RMK A01 T01561018  RH  030%=      5-min Rain = 0
KEA1 132350Z 17013KT 16/M02 A3022 RMK A01 T01561018  RH  030%=      5-min Rain = 0
KEA1 132351Z 17014KT 16/M02 A3022 RMK A01 T01551018  RH  030%=      5-min Rain = 0
KEA1 132352Z 16014KT 16/M02 A3022 RMK A01 T01551018  RH  031%=      5-min Rain = 0
KEA1 132353Z 17013KT 15/M02 A3022 RMK A01 T01541018  RH  031%=      5-min Rain = 0
KEA1 132354Z 17013KT 15/M02 A3022 RMK A01 T01531019  RH  031%=      5-min Rain = 0
KEA1 132355Z 16011KT 15/M02 A3022 RMK A01 T01531019  RH  031%=      5-min Rain = 0
KEA1 132356Z 16013KT 15/M02 A3022 RMK A01 T01521019  RH  031%=      5-min Rain = 0
KEA1 132357Z 16014KT 15/M02 A3022 RMK A01 T01521018  RH  031%=      5-min Rain = 0
KEA1 132358Z 17011KT 15/M02 A3022 RMK A01 T01521018  RH  031%=      5-min Rain = 0
KEA1 132359Z 16012KT 15/M02 A3022 RMK A01 T01511019  RH  031%=      5-min Rain = 0
KEA1 140000Z 17013KT 15/M02 A3022 RMK A01 T01501019  RH  031%=      5-min Rain = 0
KEA1 140001Z 17013KT 15/M02 A3022 RMK A01 T01501019  RH  031%=      5-min Rain = 0
KEA1 140002Z 16011KT 15/M02 A3022 RMK A01 T01491019  RH  031%=      5-min Rain = 0
KEA1 140003Z 16010KT 15/M02 A3022 RMK A01 T01491019  RH  031%=      5-min Rain = 0
KEA1 140004Z 17010KT 15/M02 A3022 RMK A01 T01491019  RH  032%=      5-min Rain = 0
KEA1 140005Z 16011KT 15/M02 A3022 RMK A01 T01481019  RH  032%=      5-min Rain = 0
KEA1 140006Z 16010KT 15/M02 A3022 RMK A01 T01471019  RH  032%=      5-min Rain = 0
KEA1 140007Z 16011KT 15/M02 A3022 RMK A01 T01461019  RH  032%=      5-min Rain = 0
KEA1 140008Z 16010KT 15/M02 A3022 RMK A01 T01461019  RH  032%=      5-min Rain = 0
KEA1 140009Z 16011KT 15/M02 A3022 RMK A01 T01451019  RH  032%=      5-min Rain = 0
KEA1 140010Z 16010KT 15/M02 A3022 RMK A01 T01451019  RH  032%=      5-min Rain = 0
KEA1 140011Z 16010KT 14/M02 A3022 RMK A01 T01441019  RH  032%=      5-min Rain = 0
KEA1 140012Z 16011KT 14/M02 A3022 RMK A01 T01441019  RH  033%=      5-min Rain = 0
KEA1 140013Z 16011KT 14/M02 A3022 RMK A01 T01431019  RH  033%=      5-min Rain = 0
KEA1 140014Z 16009KT 14/M02 A3022 RMK A01 T01431019  RH  033%=      5-min Rain = 0
KEA1 140015Z 16010KT 14/M02 A3022 RMK A01 T01421019  RH  033%=      5-min Rain = 0
KEA1 140016Z 16010KT 14/M02 A3022 RMK A01 T01411019  RH  033%=      5-min Rain = 0
KEA1 140017Z 16010KT 14/M02 A3022 RMK A01 T01411019  RH  033%=      5-min Rain = 0
KEA1 140018Z 16009KT 14/M02 A3022 RMK A01 T01401019  RH  033%=      5-min Rain = 0
KEA1 140019Z 16009KT 14/M02 A3022 RMK A01 T01391019  RH  033%=      5-min Rain = 0
KEA1 140020Z 16010KT 14/M02 A3022 RMK A01 T01371020  RH  034%=      5-min Rain = 0
KEA1 140021Z 16008KT 14/M02 A3022 RMK A01 T01361019  RH  034%=      5-min Rain = 0
KEA1 140022Z 15009KT 14/M02 A3022 RMK A01 T01351020  RH  034%=      5-min Rain = 0
KEA1 140023Z 16008KT 13/M02 A3022 RMK A01 T01331020  RH  035%=      5-min Rain = 0
KEA1 140024Z 16008KT 13/M02 A3022 RMK A01 T01321020  RH  035%=      5-min Rain = 0
KEA1 140025Z 16009KT 13/M02 A3022 RMK A01 T01311020  RH  035%=      5-min Rain = 0
KEA1 140026Z 16009KT 13/M02 A3022 RMK A01 T01301020  RH  035%=      5-min Rain = 0
KEA1 140027Z 16010KT 13/M02 A3022 RMK A01 T01281019  RH  036%=      5-min Rain = 0
KEA1 140028Z 16010KT 13/M02 A3022 RMK A01 T01281019  RH  036%=      5-min Rain = 0
KEA1 140029Z 16010KT 13/M02 A3022 RMK A01 T01271018  RH  037%=      5-min Rain = 0
KEA1 140030Z 16010KT 13/M02 A3022 RMK A01 T01261017  RH  037%=      5-min Rain = 0
KEA1 140031Z 16010KT 13/M02 A3022 RMK A01 T01261016  RH  037%=      5-min Rain = 0
KEA1 140032Z 16010KT 13/M02 A3022 RMK A01 T01261015  RH  038%=      5-min Rain = 0
KEA1 140033Z 16010KT 13/M02 A3022 RMK A01 T01251015  RH  038%=      5-min Rain = 0
KEA1 140034Z 16010KT 13/M01 A3022 RMK A01 T01251014  RH  038%=      5-min Rain = 0
KEA1 140035Z 16010KT 12/M01 A3022 RMK A01 T01241014  RH  038%=      5-min Rain = 0
KEA1 140036Z 16010KT 12/M01 A3022 RMK A01 T01231014  RH  039%=      5-min Rain = 0
KEA1 140037Z 16010KT 12/M01 A3022 RMK A01 T01221014  RH  039%=      5-min Rain = 0
KEA1 140038Z 16009KT 12/M01 A3022 RMK A01 T01221013  RH  039%=      5-min Rain = 0
KEA1 140039Z 16010KT 12/M01 A3022 RMK A01 T01221012  RH  039%=      5-min Rain = 0
KEA1 140040Z 16010KT 12/M01 A3022 RMK A01 T01211012  RH  040%=      5-min Rain = 0
KEA1 140041Z 16009KT 12/M01 A3022 RMK A01 T01211012  RH  040%=      5-min Rain = 0
KEA1 140042Z 16009KT 12/M01 A3022 RMK A01 T01201013  RH  040%=      5-min Rain = 0
KEA1 140043Z 16009KT 12/M01 A3022 RMK A01 T01191012  RH  040%=      5-min Rain = 0
KEA1 140044Z 16009KT 12/M01 A3022 RMK A01 T01181012  RH  040%=      5-min Rain = 0
KEA1 140045Z 16009KT 12/M01 A3022 RMK A01 T01181012  RH  040%=      5-min Rain = 0
KEA1 140046Z 16010KT 12/M01 A3022 RMK A01 T01161013  RH  041%=      5-min Rain = 0
KEA1 140047Z 16010KT 12/M01 A3022 RMK A01 T01161012  RH  041%=      5-min Rain = 0
KEA1 140048Z 16010KT 12/M01 A3022 RMK A01 T01161011  RH  041%=      5-min Rain = 0
KEA1 140049Z 16010KT 12/M01 A3022 RMK A01 T01161011  RH  041%=      5-min Rain = 0
KEA1 140050Z 16010KT 12/M01 A3022 RMK A01 T01151011  RH  042%=      5-min Rain = 0
KEA1 140051Z 16010KT 12/M01 A3022 RMK A01 T01151010  RH  042%=      5-min Rain = 0
KEA1 140052Z 16009KT 11/M01 A3022 RMK A01 T01141011  RH  042%=      5-min Rain = 0
KEA1 140053Z 16009KT 11/M01 A3023 RMK A01 T01131011  RH  042%=      5-min Rain = 0
KEA1 140054Z 16009KT 11/M01 A3023 RMK A01 T01111011  RH  042%=      5-min Rain = 0
KEA1 140055Z 16009KT 11/M01 A3023 RMK A01 T01101012  RH  043%=      5-min Rain = 0
KEA1 140056Z 16009KT 11/M01 A3023 RMK A01 T01091011  RH  043%=      5-min Rain = 0
KEA1 140057Z 16009KT 11/M01 A3023 RMK A01 T01081011  RH  043%=      5-min Rain = 0
KEA1 140058Z 16010KT 11/M01 A3023 RMK A01 T01071011  RH  044%=      5-min Rain = 0
KEA1 140059Z 16009KT 11/M01 A3023 RMK A01 T01071011  RH  044%=      5-min Rain = 0
KEA1 140100Z 16010KT 11/M01 A3023 RMK A01 T01071011  RH  044%=      5-min Rain = 0
KEA1 140101Z 16010KT 11/M01 A3023 RMK A01 T01061011  RH  044%=      5-min Rain = 0
KEA1 140102Z 16009KT 11/M01 A3023 RMK A01 T01051011  RH  044%=      5-min Rain = 0
KEA1 140103Z 16010KT 10/M01 A3023 RMK A01 T01041011  RH  045%=      5-min Rain = 0
KEA1 140104Z 16009KT 10/M01 A3023 RMK A01 T01041010  RH  045%=      5-min Rain = 0
KEA1 140105Z 16009KT 10/M01 A3023 RMK A01 T01031010  RH  045%=      5-min Rain = 0
KEA1 140106Z 16009KT 10/M01 A3023 RMK A01 T01031010  RH  045%=      5-min Rain = 0
KEA1 140107Z 16009KT 10/M01 A3023 RMK A01 T01031009  RH  045%=      5-min Rain = 0
KEA1 140108Z 16009KT 10/M01 A3023 RMK A01 T01031010  RH  046%=      5-min Rain = 0
KEA1 140109Z 16009KT 10/M01 A3023 RMK A01 T01021010  RH  046%=      5-min Rain = 0
KEA1 140110Z 16009KT 10/M01 A3023 RMK A01 T01011010  RH  046%=      5-min Rain = 0
KEA1 140111Z 16009KT 10/M01 A3023 RMK A01 T01011010  RH  046%=      5-min Rain = 0
KEA1 140112Z 16009KT 10/M01 A3023 RMK A01 T01001010  RH  046%=      5-min Rain = 0
KEA1 140113Z 16008KT 10/M01 A3023 RMK A01 T00991010  RH  046%=      5-min Rain = 0
KEA1 140114Z 16009KT 10/M01 A3023 RMK A01 T00991010  RH  047%=      5-min Rain = 0
KEA1 140115Z 17009KT 10/M01 A3023 RMK A01 T00981010  RH  047%=      5-min Rain = 0
KEA1 140116Z 17009KT 10/M01 A3023 RMK A01 T00981010  RH  047%=      5-min Rain = 0
KEA1 140117Z 17009KT 10/M01 A3023 RMK A01 T00971011  RH  047%=      5-min Rain = 0
KEA1 140118Z 16009KT 10/M01 A3023 RMK A01 T00971010  RH  047%=      5-min Rain = 0
KEA1 140119Z 16009KT 10/M01 A3023 RMK A01 T00961010  RH  047%=      5-min Rain = 0
KEA1 140120Z 16010KT 10/M01 A3023 RMK A01 T00961010  RH  048%=      5-min Rain = 0
KEA1 140121Z 16010KT 10/M01 A3023 RMK A01 T00961010  RH  048%=      5-min Rain = 0
KEA1 140122Z 16010KT 10/M01 A3023 RMK A01 T00961009  RH  048%=      5-min Rain = 0
KEA1 140123Z 16010KT 10/M01 A3023 RMK A01 T00961009  RH  048%=      5-min Rain = 0
KEA1 140124Z 16010KT 10/M01 A3023 RMK A01 T00961009  RH  048%=      5-min Rain = 0
KEA1 140125Z 17010KT 10/M01 A3023 RMK A01 T00961009  RH  048%=      5-min Rain = 0
KEA1 140126Z 17010KT 10/M01 A3023 RMK A01 T00961009  RH  048%=      5-min Rain = 0
KEA1 140127Z 17010KT 10/M01 A3023 RMK A01 T00961009  RH  048%=      5-min Rain = 0
KEA1 140128Z 17011KT 10/M01 A3023 RMK A01 T00951009  RH  048%=      5-min Rain = 0
KEA1 140129Z 17011KT 09/M01 A3023 RMK A01 T00941010  RH  048%=      5-min Rain = 0
KEA1 140130Z 17011KT 09/M01 A3023 RMK A01 T00941010  RH  048%=      5-min Rain = 0
KEA1 140131Z 17010KT 09/M01 A3023 RMK A01 T00941009  RH  048%=      5-min Rain = 0
KEA1 140132Z 17010KT 09/M01 A3023 RMK A01 T00941010  RH  048%=      5-min Rain = 0
KEA1 140133Z 17011KT 09/M01 A3023 RMK A01 T00931010  RH  049%=      5-min Rain = 0
KEA1 140134Z 17011KT 09/M01 A3023 RMK A01 T00921010  RH  049%=      5-min Rain = 0
KEA1 140135Z 17011KT 09/M01 A3023 RMK A01 T00921009  RH  049%=      5-min Rain = 0
KEA1 140136Z 17011KT 09/M01 A3023 RMK A01 T00921009  RH  049%=      5-min Rain = 0
KEA1 140137Z 17011KT 09/M01 A3023 RMK A01 T00921009  RH  049%=      5-min Rain = 0
KEA1 140138Z 17012KT 09/M01 A3023 RMK A01 T00921008  RH  050%=      5-min Rain = 0
KEA1 140139Z 17011KT 09/M01 A3023 RMK A01 T00921008  RH  049%=      5-min Rain = 0
KEA1 140140Z 17011KT 09/M01 A3023 RMK A01 T00921008  RH  050%=      5-min Rain = 0
KEA1 140141Z 17011KT 09/M01 A3023 RMK A01 T00921008  RH  050%=      5-min Rain = 0
KEA1 140142Z 16011KT 09/M01 A3023 RMK A01 T00931007  RH  050%=      5-min Rain = 0
KEA1 140143Z 17011KT 09/M01 A3023 RMK A01 T00941007  RH  050%=      5-min Rain = 0
KEA1 140144Z 17011KT 09/M01 A3023 RMK A01 T00941006  RH  050%=      5-min Rain = 0
KEA1 140145Z 17011KT 09/M01 A3023 RMK A01 T00941006  RH  050%=      5-min Rain = 0
KEA1 140146Z 17011KT 10/M01 A3023 RMK A01 T00951006  RH  049%=      5-min Rain = 0
KEA1 140147Z 17011KT 10/M01 A3023 RMK A01 T00951006  RH  049%=      5-min Rain = 0
KEA1 140148Z 17010KT 10/M01 A3023 RMK A01 T00951005  RH  050%=      5-min Rain = 0
KEA1 140149Z 16011KT 10/M01 A3023 RMK A01 T00951005  RH  050%=      5-min Rain = 0
KEA1 140150Z 17011KT 10/M01 A3023 RMK A01 T00951005  RH  050%=      5-min Rain = 0
KEA1 140151Z 17011KT 10/M00 A3023 RMK A01 T00951004  RH  050%=      5-min Rain = 0
KEA1 140152Z 16011KT 10/M00 A3023 RMK A01 T00951004  RH  050%=      5-min Rain = 0
KEA1 140153Z 17010KT 10/M00 A3023 RMK A01 T00961004  RH  050%=      5-min Rain = 0
KEA1 140154Z 17011KT 10/M00 A3023 RMK A01 T00961004  RH  050%=      5-min Rain = 0
KEA1 140155Z 17011KT 10/M00 A3023 RMK A01 T00951004  RH  050%=      5-min Rain = 0
KEA1 140156Z 17010KT 10/M00 A3023 RMK A01 T00961003  RH  050%=      5-min Rain = 0
KEA1 140157Z 17011KT 10/M00 A3023 RMK A01 T00961003  RH  050%=      5-min Rain = 0
KEA1 140158Z 17010KT 10/M00 A3023 RMK A01 T00961003  RH  050%=      5-min Rain = 0
KEA1 140159Z 17011KT 10/M00 A3023 RMK A01 T00951003  RH  050%=      5-min Rain = 0
KEA1 140200Z 17011KT 10/M00 A3024 RMK A01 T00951003  RH  051%=      5-min Rain = 0
KEA1 140201Z 17013KT 10/M00 A3024 RMK A01 T00961002  RH  051%=      5-min Rain = 0
KEA1 140202Z 17012KT 10/M00 A3024 RMK A01 T00981001  RH  050%=      5-min Rain = 0
KEA1 140203Z 17012KT 10/M00 A3024 RMK A01 T00981001  RH  050%=      5-min Rain = 0
KEA1 140204Z 17012KT 10/00 A3024 RMK A01 T009800-0  RH  050%=      5-min Rain = 0
KEA1 140205Z 17012KT 10/00 A3024 RMK A01 T009800-0  RH  050%=      5-min Rain = 0
KEA1 140206Z 17012KT 10/M00 A3024 RMK A01 T00981001  RH  050%=      5-min Rain = 0
KEA1 140207Z 17012KT 10/M00 A3024 RMK A01 T00981001  RH  050%=      5-min Rain = 0
KEA1 140208Z 17012KT 10/00 A3024 RMK A01 T009800-0  RH  051%=      5-min Rain = 0
KEA1 140209Z 17013KT 10/00 A3023 RMK A01 T009700-0  RH  051%=      5-min Rain = 0
KEA1 140210Z 17013KT 10/M00 A3024 RMK A01 T00971001  RH  051%=      5-min Rain = 0
KEA1 140211Z 17012KT 10/00 A3023 RMK A01 T009700-0  RH  051%=      5-min Rain = 0
KEA1 140212Z 17013KT 10/00 A3023 RMK A01 T009800-0  RH  051%=      5-min Rain = 0
KEA1 140213Z 17013KT 10/00 A3023 RMK A01 T009700-0  RH  051%=      5-min Rain = 0
KEA1 140214Z 17012KT 10/00 A3023 RMK A01 T009700-0  RH  051%=      5-min Rain = 0
KEA1 140215Z 17013KT 10/00 A3023 RMK A01 T009600-0  RH  051%=      5-min Rain = 0
KEA1 140216Z 17013KT 10/00 A3023 RMK A01 T00960000  RH  051%=      5-min Rain = 0
KEA1 140217Z 17013KT 10/00 A3023 RMK A01 T00960000  RH  051%=      5-min Rain = 0
KEA1 140218Z 17013KT 10/00 A3023 RMK A01 T00960000  RH  051%=      5-min Rain = 0
KEA1 140219Z 17014KT 10/00 A3023 RMK A01 T00960001  RH  051%=      5-min Rain = 0
KEA1 140220Z 17013KT 10/00 A3023 RMK A01 T00960001  RH  051%=      5-min Rain = 0
KEA1 140221Z 17013KT 10/00 A3023 RMK A01 T00960001  RH  051%=      5-min Rain = 0
KEA1 140222Z 17014KT 10/00 A3023 RMK A01 T00960001  RH  052%=      5-min Rain = 0
KEA1 140223Z 17013KT 10/00 A3023 RMK A01 T00960001  RH  051%=      5-min Rain = 0
KEA1 140224Z 17014KT 10/00 A3023 RMK A01 T00960001  RH  052%=      5-min Rain = 0
KEA1 140225Z 17013KT 10/00 A3023 RMK A01 T00950000  RH  052%=      5-min Rain = 0
KEA1 140226Z 17013KT 10/00 A3023 RMK A01 T00950001  RH  052%=      5-min Rain = 0
KEA1 140227Z 17013KT 09/00 A3023 RMK A01 T00940000  RH  052%=      5-min Rain = 0
KEA1 140228Z 17013KT 09/00 A3023 RMK A01 T00940001  RH  052%=      5-min Rain = 0
KEA1 140229Z 17013KT 09/00 A3023 RMK A01 T00940001  RH  052%=      5-min Rain = 0
KEA1 140230Z 17013KT 09/00 A3023 RMK A01 T00930001  RH  052%=      5-min Rain = 0
KEA1 140231Z 17013KT 09/00 A3023 RMK A01 T00930001  RH  053%=      5-min Rain = 0
KEA1 140232Z 17013KT 09/00 A3023 RMK A01 T00940002  RH  053%=      5-min Rain = 0
KEA1 140233Z 17013KT 09/00 A3023 RMK A01 T00940001  RH  052%=      5-min Rain = 0
KEA1 140234Z 17012KT 09/00 A3023 RMK A01 T00940001  RH  053%=      5-min Rain = 0
KEA1 140235Z 17012KT 09/00 A3023 RMK A01 T00940002  RH  053%=      5-min Rain = 0
KEA1 140236Z 17013KT 09/00 A3023 RMK A01 T00940002  RH  053%=      5-min Rain = 0
KEA1 140237Z 17012KT 09/00 A3023 RMK A01 T00930002  RH  053%=      5-min Rain = 0
KEA1 140238Z 17013KT 09/00 A3023 RMK A01 T00920002  RH  053%=      5-min Rain = 0
KEA1 140239Z 17012KT 09/00 A3023 RMK A01 T00920003  RH  053%=      5-min Rain = 0
KEA1 140240Z 17013KT 09/00 A3023 RMK A01 T00940004  RH  054%=      5-min Rain = 0
KEA1 140241Z 17012KT 09/00 A3024 RMK A01 T00940004  RH  053%=      5-min Rain = 0
KEA1 140242Z 17013KT 09/00 A3024 RMK A01 T00940004  RH  053%=      5-min Rain = 0
KEA1 140243Z 17012KT 09/00 A3024 RMK A01 T00940004  RH  053%=      5-min Rain = 0
KEA1 140244Z 17013KT 10/00 A3024 RMK A01 T00950004  RH  053%=      5-min Rain = 0
KEA1 140245Z 17013KT 10/01 A3024 RMK A01 T00960005  RH  053%=      5-min Rain = 0
KEA1 140246Z 17013KT 10/01 A3024 RMK A01 T00950005  RH  053%=      5-min Rain = 0
KEA1 140247Z 17012KT 10/01 A3024 RMK A01 T00950005  RH  053%=      5-min Rain = 0
KEA1 140248Z 17012KT 10/01 A3024 RMK A01 T00950005  RH  053%=      5-min Rain = 0
KEA1 140249Z 17014KT 09/01 A3023 RMK A01 T00940005  RH  054%=      5-min Rain = 0
KEA1 140250Z 17015KT 10/01 A3023 RMK A01 T00950006  RH  054%=      5-min Rain = 0
KEA1 140251Z 17014KT 10/01 A3023 RMK A01 T00970007  RH  053%=      5-min Rain = 0
KEA1 140252Z 17013KT 10/01 A3023 RMK A01 T00970006  RH  053%=      5-min Rain = 0
KEA1 140253Z 17014KT 10/01 A3023 RMK A01 T00970006  RH  053%=      5-min Rain = 0
KEA1 140254Z 17014KT 10/01 A3023 RMK A01 T00970007  RH  053%=      5-min Rain = 0
KEA1 140255Z 17013KT 10/01 A3023 RMK A01 T00980007  RH  053%=      5-min Rain = 0
KEA1 140256Z 17013KT 10/01 A3023 RMK A01 T00980007  RH  053%=      5-min Rain = 0
KEA1 140257Z 17015KT 10/01 A3023 RMK A01 T00980007  RH  053%=      5-min Rain = 0
KEA1 140258Z 17015KT 10/01 A3023 RMK A01 T00990007  RH  053%=      5-min Rain = 0
KEA1 140259Z 17015KT 10/01 A3023 RMK A01 T00990008  RH  053%=      5-min Rain = 0
KEA1 140300Z 17015KT 10/01 A3023 RMK A01 T00990007  RH  053%=      5-min Rain = 0
KEA1 140301Z 17014KT 10/01 A3023 RMK A01 T00990007  RH  053%=      5-min Rain = 0
KEA1 140302Z 17013KT 10/01 A3024 RMK A01 T00990007  RH  053%=      5-min Rain = 0
KEA1 140303Z 17013KT 10/01 A3024 RMK A01 T00980007  RH  053%=      5-min Rain = 0
KEA1 140304Z 17015KT 10/01 A3023 RMK A01 T00980007  RH  053%=      5-min Rain = 0
KEA1 140305Z 17014KT 10/01 A3024 RMK A01 T00990008  RH  053%=      5-min Rain = 0
KEA1 140306Z 17014KT 10/01 A3024 RMK A01 T00990008  RH  053%=      5-min Rain = 0
KEA1 140307Z 17013KT 10/01 A3024 RMK A01 T00990008  RH  053%=      5-min Rain = 0
KEA1 140308Z 17013KT 10/01 A3024 RMK A01 T00990008  RH  053%=      5-min Rain = 0
KEA1 140309Z 17014KT 10/01 A3024 RMK A01 T00980008  RH  053%=      5-min Rain = 0
KEA1 140310Z 17015KT 10/01 A3024 RMK A01 T00990009  RH  053%=      5-min Rain = 0
KEA1 140311Z 17013KT 10/01 A3024 RMK A01 T00990008  RH  053%=      5-min Rain = 0
KEA1 140312Z 17014KT 10/01 A3024 RMK A01 T00990009  RH  053%=      5-min Rain = 0
KEA1 140313Z 17014KT 10/01 A3023 RMK A01 T00990009  RH  053%=      5-min Rain = 0
KEA1 140314Z 17015KT 10/01 A3024 RMK A01 T01000009  RH  053%=      5-min Rain = 0
KEA1 140315Z 17015G20KT 10/01 A3024 RMK A01 T01000009  RH  053%=      5-min Rain = 0
KEA1 140316Z 17014KT 10/01 A3024 RMK A01 T01000009  RH  053%=      5-min Rain = 0
KEA1 140317Z 17014KT 10/01 A3024 RMK A01 T01000009  RH  053%=      5-min Rain = 0
KEA1 140318Z 17014KT 10/01 A3024 RMK A01 T01000009  RH  053%=      5-min Rain = 0
KEA1 140319Z 17014KT 10/01 A3024 RMK A01 T01000009  RH  053%=      5-min Rain = 0
KEA1 140320Z 17015KT 10/01 A3024 RMK A01 T01010009  RH  053%=      5-min Rain = 0
KEA1 140321Z 17013KT 10/01 A3024 RMK A01 T01010009  RH  053%=      5-min Rain = 0
KEA1 140322Z 17013KT 10/01 A3024 RMK A01 T01000009  RH  053%=      5-min Rain = 0
KEA1 140323Z 17014KT 10/01 A3024 RMK A01 T00990008  RH  053%=      5-min Rain = 0
KEA1 140324Z 18013KT 10/01 A3024 RMK A01 T00980008  RH  053%=      5-min Rain = 0
KEA1 140325Z 18015KT 10/01 A3024 RMK A01 T00990008  RH  053%=      5-min Rain = 0
KEA1 140326Z 17014KT 10/01 A3024 RMK A01 T00990008  RH  053%=      5-min Rain = 0
KEA1 140327Z 17014KT 10/01 A3024 RMK A01 T00990008  RH  053%=      5-min Rain = 0
KEA1 140328Z 18013KT 10/01 A3024 RMK A01 T00980008  RH  053%=      5-min Rain = 0
KEA1 140329Z 17014KT 10/01 A3024 RMK A01 T00970008  RH  054%=      5-min Rain = 0
KEA1 140330Z 18012KT 10/01 A3024 RMK A01 T00970008  RH  054%=      5-min Rain = 0
KEA1 140331Z 18013KT 10/01 A3024 RMK A01 T00960007  RH  054%=      5-min Rain = 0
KEA1 140332Z 18012KT 10/01 A3024 RMK A01 T00960008  RH  054%=      5-min Rain = 0
KEA1 140333Z 18013KT 10/01 A3024 RMK A01 T00950008  RH  054%=      5-min Rain = 0
KEA1 140334Z 18013KT 10/01 A3024 RMK A01 T00950008  RH  054%=      5-min Rain = 0
KEA1 140335Z 18014KT 10/01 A3024 RMK A01 T00950009  RH  055%=      5-min Rain = 0
KEA1 140336Z 18011KT 10/01 A3024 RMK A01 T00960008  RH  055%=      5-min Rain = 0
KEA1 140337Z 17013KT 10/01 A3024 RMK A01 T00960009  RH  055%=      5-min Rain = 0
KEA1 140338Z 18013KT 10/01 A3025 RMK A01 T00950009  RH  055%=      5-min Rain = 0
KEA1 140339Z 17013KT 10/01 A3024 RMK A01 T00950009  RH  055%=      5-min Rain = 0
KEA1 140340Z 18013KT 10/01 A3025 RMK A01 T00950009  RH  055%=      5-min Rain = 0
KEA1 140341Z 18013KT 09/01 A3025 RMK A01 T00940008  RH  055%=      5-min Rain = 0
KEA1 140342Z 18014KT 09/01 A3025 RMK A01 T00940009  RH  055%=      5-min Rain = 0
KEA1 140343Z 18013KT 09/01 A3025 RMK A01 T00940009  RH  055%=      5-min Rain = 0
KEA1 140344Z 17012KT 09/01 A3025 RMK A01 T00940008  RH  055%=      5-min Rain = 0
KEA1 140345Z 18013KT 09/01 A3025 RMK A01 T00940009  RH  055%=      5-min Rain = 0
KEA1 140346Z 17014KT 09/01 A3024 RMK A01 T00940008  RH  055%=      5-min Rain = 0
KEA1 140347Z 18013KT 09/01 A3024 RMK A01 T00930008  RH  055%=      5-min Rain = 0
KEA1 140348Z 17012KT 09/01 A3024 RMK A01 T00940008  RH  055%=      5-min Rain = 0
KEA1 140349Z 17012KT 09/01 A3024 RMK A01 T00930008  RH  055%=      5-min Rain = 0
KEA1 140350Z 18012KT 09/01 A3024 RMK A01 T00930009  RH  055%=      5-min Rain = 0
KEA1 140351Z 18011KT 09/01 A3024 RMK A01 T00930009  RH  055%=      5-min Rain = 0
KEA1 140352Z 18012KT 09/01 A3024 RMK A01 T00930009  RH  056%=      5-min Rain = 0
KEA1 140353Z 17010KT 09/01 A3024 RMK A01 T00930009  RH  056%=      5-min Rain = 0
KEA1 140354Z 18011KT 09/01 A3024 RMK A01 T00930009  RH  056%=      5-min Rain = 0
KEA1 140355Z 18010KT 09/01 A3024 RMK A01 T00930009  RH  056%=      5-min Rain = 0
KEA1 140356Z 18011KT 09/01 A3024 RMK A01 T00930009  RH  056%=      5-min Rain = 0
KEA1 140357Z 18010KT 09/01 A3025 RMK A01 T00930009  RH  056%=      5-min Rain = 0
KEA1 140358Z 18011KT 09/01 A3024 RMK A01 T00930009  RH  056%=      5-min Rain = 0
KEA1 140359Z 18010KT 09/01 A3024 RMK A01 T00930010  RH  056%=      5-min Rain = 0
KEA1 140400Z 18009KT 09/01 A3024 RMK A01 T00930010  RH  056%=      5-min Rain = 0
KEA1 140401Z 18010KT 09/01 A3024 RMK A01 T00930010  RH  056%=      5-min Rain = 0
KEA1 140402Z 18010KT 09/01 A3024 RMK A01 T00920009  RH  056%=      5-min Rain = 0
KEA1 140403Z 18009KT 09/01 A3024 RMK A01 T00920009  RH  056%=      5-min Rain = 0
KEA1 140404Z 18008KT 09/01 A3025 RMK A01 T00930009  RH  056%=      5-min Rain = 0
KEA1 140405Z 18009KT 09/01 A3025 RMK A01 T00920009  RH  056%=      5-min Rain = 0
KEA1 140406Z 18010KT 09/01 A3025 RMK A01 T00920009  RH  056%=      5-min Rain = 0
KEA1 140407Z 18011KT 09/01 A3025 RMK A01 T00920009  RH  056%=      5-min Rain = 0
KEA1 140408Z 18011KT 09/01 A3025 RMK A01 T00930010  RH  056%=      5-min Rain = 0
KEA1 140409Z 18012KT 09/01 A3025 RMK A01 T00940010  RH  056%=      5-min Rain = 0
KEA1 140410Z 18011KT 09/01 A3025 RMK A01 T00940010  RH  056%=      5-min Rain = 0
KEA1 140411Z 18011KT 09/01 A3025 RMK A01 T00940010  RH  056%=      5-min Rain = 0
KEA1 140412Z 18012KT 09/01 A3025 RMK A01 T00940010  RH  056%=      5-min Rain = 0
KEA1 140413Z 18011KT 09/01 A3025 RMK A01 T00940010  RH  056%=      5-min Rain = 0
KEA1 140414Z 18011KT 09/01 A3025 RMK A01 T00940010  RH  056%=      5-min Rain = 0
KEA1 140415Z 18011KT 09/01 A3025 RMK A01 T00940010  RH  055%=      5-min Rain = 0
KEA1 140416Z 18012KT 10/01 A3025 RMK A01 T00950010  RH  055%=      5-min Rain = 0
KEA1 140417Z 18012KT 10/01 A3025 RMK A01 T00950010  RH  055%=      5-min Rain = 0
KEA1 140418Z 18011KT 10/01 A3025 RMK A01 T00950010  RH  055%=      5-min Rain = 0
KEA1 140419Z 18013KT 09/01 A3024 RMK A01 T00940010  RH  055%=      5-min Rain = 0
KEA1 140420Z 18012KT 09/01 A3024 RMK A01 T00940010  RH  056%=      5-min Rain = 0
KEA1 140421Z 18012KT 09/01 A3024 RMK A01 T00940010  RH  055%=      5-min Rain = 0
KEA1 140422Z 18011KT 10/01 A3024 RMK A01 T00950010  RH  055%=      5-min Rain = 0
KEA1 140423Z 18012KT 09/01 A3024 RMK A01 T00940009  RH  055%=      5-min Rain = 0
KEA1 140424Z 18011KT 09/01 A3024 RMK A01 T00940010  RH  055%=      5-min Rain = 0
KEA1 140425Z 18011KT 09/01 A3024 RMK A01 T00940009  RH  056%=      5-min Rain = 0
KEA1 140426Z 18012KT 09/01 A3024 RMK A01 T00940009  RH  056%=      5-min Rain = 0
KEA1 140427Z 18012KT 09/01 A3024 RMK A01 T00940010  RH  056%=      5-min Rain = 0
KEA1 140428Z 18011KT 09/01 A3024 RMK A01 T00940009  RH  056%=      5-min Rain = 0
KEA1 140429Z 18010KT 09/01 A3024 RMK A01 T00930009  RH  056%=      5-min Rain = 0
KEA1 140430Z 18009KT 09/01 A3024 RMK A01 T00920008  RH  056%=      5-min Rain = 0
KEA1 140431Z 18011KT 09/01 A3024 RMK A01 T00920009  RH  056%=      5-min Rain = 0
KEA1 140432Z 18009KT 09/01 A3024 RMK A01 T00910008  RH  056%=      5-min Rain = 0
KEA1 140433Z 18008KT 09/01 A3024 RMK A01 T00900008  RH  056%=      5-min Rain = 0
KEA1 140434Z 18008KT 09/01 A3024 RMK A01 T00890008  RH  057%=      5-min Rain = 0
KEA1 140435Z 18009KT 09/01 A3024 RMK A01 T00880007  RH  057%=      5-min Rain = 0
KEA1 140436Z 18009KT 09/01 A3024 RMK A01 T00880008  RH  057%=      5-min Rain = 0
KEA1 140437Z 18008KT 09/01 A3024 RMK A01 T00880008  RH  057%=      5-min Rain = 0
KEA1 140438Z 18009KT 09/01 A3024 RMK A01 T00880008  RH  057%=      5-min Rain = 0
KEA1 140439Z 18010KT 09/01 A3024 RMK A01 T00870008  RH  057%=      5-min Rain = 0
KEA1 140440Z 18009KT 09/01 A3024 RMK A01 T00880008  RH  057%=      5-min Rain = 0
KEA1 140441Z 19008KT 09/01 A3024 RMK A01 T00880008  RH  057%=      5-min Rain = 0
KEA1 140442Z 18009KT 09/01 A3024 RMK A01 T00870007  RH  057%=      5-min Rain = 0
KEA1 140443Z 18008KT 09/01 A3024 RMK A01 T00870008  RH  057%=      5-min Rain = 0
KEA1 140444Z 18009KT 09/01 A3024 RMK A01 T00870008  RH  058%=      5-min Rain = 0
KEA1 140445Z 18008KT 09/01 A3024 RMK A01 T00870008  RH  058%=      5-min Rain = 0
KEA1 140446Z 18008KT 09/01 A3024 RMK A01 T00870008  RH  058%=      5-min Rain = 0
KEA1 140447Z 18008KT 09/01 A3024 RMK A01 T00870008  RH  057%=      5-min Rain = 0
KEA1 140448Z 18007KT 09/01 A3024 RMK A01 T00870008  RH  058%=      5-min Rain = 0
KEA1 140449Z 18007KT 09/01 A3024 RMK A01 T00870008  RH  058%=      5-min Rain = 0
KEA1 140450Z 18007KT 09/01 A3024 RMK A01 T00860008  RH  058%=      5-min Rain = 0
KEA1 140451Z 18008KT 09/01 A3024 RMK A01 T00860008  RH  058%=      5-min Rain = 0
KEA1 140452Z 18007KT 09/01 A3024 RMK A01 T00860008  RH  058%=      5-min Rain = 0
KEA1 140453Z 18007KT 09/01 A3024 RMK A01 T00860008  RH  058%=      5-min Rain = 0
KEA1 140454Z 18007KT 09/01 A3024 RMK A01 T00860007  RH  058%=      5-min Rain = 0
KEA1 140455Z 18006KT 09/01 A3024 RMK A01 T00860008  RH  058%=      5-min Rain = 0
KEA1 140456Z 18007KT 09/01 A3024 RMK A01 T00850008  RH  058%=      5-min Rain = 0
KEA1 140457Z 18007KT 09/01 A3024 RMK A01 T00850008  RH  058%=      5-min Rain = 0
KEA1 140458Z 18007KT 09/01 A3024 RMK A01 T00850008  RH  058%=      5-min Rain = 0
KEA1 140459Z 18007KT 09/01 A3024 RMK A01 T00860008  RH  058%=      5-min Rain = 0
KEA1 140500Z 18007KT 09/01 A3024 RMK A01 T00860009  RH  058%=      5-min Rain = 0
KEA1 140501Z 18007KT 09/01 A3024 RMK A01 T00870008  RH  058%=      5-min Rain = 0
KEA1 140502Z 18007KT 09/01 A3024 RMK A01 T00870008  RH  058%=      5-min Rain = 0
KEA1 140503Z 18006KT 09/01 A3024 RMK A01 T00870008  RH  058%=      5-min Rain = 0
KEA1 140504Z 18007KT 09/01 A3024 RMK A01 T00870008  RH  058%=      5-min Rain = 0
KEA1 140505Z 17007KT 09/01 A3024 RMK A01 T00870008  RH  058%=      5-min Rain = 0
KEA1 140506Z 18007KT 09/01 A3024 RMK A01 T00870009  RH  058%=      5-min Rain = 0
KEA1 140507Z 18007KT 09/01 A3024 RMK A01 T00880009  RH  058%=      5-min Rain = 0
KEA1 140508Z 18007KT 09/01 A3024 RMK A01 T00880009  RH  057%=      5-min Rain = 0
KEA1 140509Z 18007KT 09/01 A3024 RMK A01 T00880008  RH  057%=      5-min Rain = 0
KEA1 140510Z 18007KT 09/01 A3024 RMK A01 T00880008  RH  057%=      5-min Rain = 0
KEA1 140511Z 18008KT 09/01 A3024 RMK A01 T00880008  RH  057%=      5-min Rain = 0
KEA1 140512Z 18008KT 09/01 A3024 RMK A01 T00880008  RH  057%=      5-min Rain = 0
KEA1 140513Z 18008KT 09/01 A3024 RMK A01 T00880008  RH  057%=      5-min Rain = 0
KEA1 140514Z 18008KT 09/01 A3024 RMK A01 T00890008  RH  057%=      5-min Rain = 0
KEA1 140515Z 18008KT 09/01 A3024 RMK A01 T00900008  RH  057%=      5-min Rain = 0
KEA1 140516Z 18009KT 09/01 A3024 RMK A01 T00900008  RH  056%=      5-min Rain = 0
KEA1 140517Z 18009KT 09/01 A3024 RMK A01 T00910008  RH  056%=      5-min Rain = 0
KEA1 140518Z 18008KT 09/01 A3024 RMK A01 T00910008  RH  056%=      5-min Rain = 0
KEA1 140519Z 18009KT 09/01 A3024 RMK A01 T00910008  RH  056%=      5-min Rain = 0
KEA1 140520Z 18009KT 09/01 A3024 RMK A01 T00910008  RH  056%=      5-min Rain = 0
KEA1 140521Z 18008KT 09/01 A3024 RMK A01 T00910008  RH  056%=      5-min Rain = 0
KEA1 140522Z 18009KT 09/01 A3024 RMK A01 T00910007  RH  056%=      5-min Rain = 0
KEA1 140523Z 19009KT 09/01 A3024 RMK A01 T00910007  RH  056%=      5-min Rain = 0
KEA1 140524Z 19009KT 09/01 A3024 RMK A01 T00910007  RH  056%=      5-min Rain = 0
KEA1 140525Z 19010KT 09/01 A3024 RMK A01 T00910007  RH  056%=      5-min Rain = 0
KEA1 140526Z 19010KT 09/01 A3024 RMK A01 T00920007  RH  056%=      5-min Rain = 0
KEA1 140527Z 19010KT 09/01 A3024 RMK A01 T00920008  RH  055%=      5-min Rain = 0
KEA1 140528Z 19010KT 09/01 A3024 RMK A01 T00930007  RH  055%=      5-min Rain = 0
KEA1 140529Z 19010KT 09/01 A3024 RMK A01 T00930008  RH  055%=      5-min Rain = 0
KEA1 140530Z 19011KT 09/01 A3024 RMK A01 T00940008  RH  055%=      5-min Rain = 0
KEA1 140531Z 19011KT 09/01 A3023 RMK A01 T00940008  RH  055%=      5-min Rain = 0
KEA1 140532Z 19009KT 09/01 A3024 RMK A01 T00940008  RH  055%=      5-min Rain = 0
KEA1 140533Z 19010KT 10/01 A3024 RMK A01 T00950008  RH  054%=      5-min Rain = 0
KEA1 140534Z 19010KT 10/01 A3024 RMK A01 T00950008  RH  054%=      5-min Rain = 0
KEA1 140535Z 19009KT 10/01 A3024 RMK A01 T00950007  RH  054%=      5-min Rain = 0
KEA1 140536Z 19010KT 09/01 A3024 RMK A01 T00940007  RH  055%=      5-min Rain = 0
KEA1 140537Z 19010KT 09/01 A3023 RMK A01 T00940007  RH  055%=      5-min Rain = 0
KEA1 140538Z 19010KT 09/01 A3023 RMK A01 T00940007  RH  054%=      5-min Rain = 0
KEA1 140539Z 19010KT 09/01 A3023 RMK A01 T00940006  RH  054%=      5-min Rain = 0
KEA1 140540Z 19011KT 09/01 A3023 RMK A01 T00940007  RH  054%=      5-min Rain = 0
KEA1 140541Z 19010KT 09/01 A3023 RMK A01 T00940007  RH  054%=      5-min Rain = 0
KEA1 140542Z 19010KT 09/01 A3023 RMK A01 T00940007  RH  054%=      5-min Rain = 0
KEA1 140543Z 19011KT 09/01 A3023 RMK A01 T00930006  RH  054%=      5-min Rain = 0
KEA1 140544Z 19011KT 09/01 A3023 RMK A01 T00930006  RH  054%=      5-min Rain = 0
KEA1 140545Z 19011KT 09/01 A3023 RMK A01 T00940006  RH  054%=      5-min Rain = 0
KEA1 140546Z 19012KT 09/01 A3023 RMK A01 T00940006  RH  054%=      5-min Rain = 0
KEA1 140547Z 19011KT 09/01 A3023 RMK A01 T00940006  RH  054%=      5-min Rain = 0
KEA1 140548Z 19012KT 09/01 A3023 RMK A01 T00940006  RH  054%=      5-min Rain = 0
KEA1 140549Z 19012KT 09/01 A3023 RMK A01 T00940006  RH  054%=      5-min Rain = 0
KEA1 140550Z 18011KT 09/01 A3023 RMK A01 T00940006  RH  054%=      5-min Rain = 0
KEA1 140551Z 18013KT 09/01 A3023 RMK A01 T00940006  RH  054%=      5-min Rain = 0
KEA1 140552Z 19012KT 10/01 A3023 RMK A01 T00950006  RH  054%=      5-min Rain = 0
KEA1 140553Z 19010KT 10/01 A3023 RMK A01 T00950006  RH  054%=      5-min Rain = 0
KEA1 140554Z 19010KT 10/01 A3023 RMK A01 T00950006  RH  054%=      5-min Rain = 0
KEA1 140555Z 19011KT 09/01 A3023 RMK A01 T00940006  RH  054%=      5-min Rain = 0
KEA1 140556Z 19010KT 09/01 A3023 RMK A01 T00940006  RH  054%=      5-min Rain = 0
KEA1 140557Z 19011KT 09/01 A3023 RMK A01 T00930005  RH  054%=      5-min Rain = 0
KEA1 140558Z 19011KT 09/01 A3023 RMK A01 T00930005  RH  054%=      5-min Rain = 0
KEA1 140559Z 19010KT 09/01 A3023 RMK A01 T00930005  RH  054%=      5-min Rain = 0

Page generated in 0.1554 seconds.